<?xml version="1.0" encoding="UTF-8" standalone="no" ?>
<gpx xmlns="http://www.topografix.com/GPX/1/1" xmlns:xsi="http://www.w3.org/2001/XMLSchema-instance" xsi:schemaLocation="http://www.topografix.com/GPX/1/1 http://www.topografix.com/GPX/1/1/gpx.xsd" version="1.1" creator="VisuGPX - https://www.visugpx.com">
  <metadata>
    <name>Guils pla de Fontera</name>
    <desc><![CDATA[randonnée en Espagne, départ de la station de ski de Guils Fontanera; piste balisée pour rejoindre le Gr 11, trace bienvenue pour trouver les balises plus facilement, refuge de la Feixat, ouvert, fontaine à proximité; passer derrière le refuge pourrait permettre d'éviter la longue portion de piste au soleil... il faut chercher un peu pour atteindre le refuge (fermé) Cases; ensuite balisage mais mélange de 204 et 205.. très beaux chemins ombragés, avec passages de torrents rafraîchissants. Petite montée en dernier.]]></desc>
  </metadata>
  <trk>
    <name><![CDATA[guils plan de Fontera]]></name>
    <cmt><![CDATA[1 juil. 2019 à 11:11:19]]></cmt>
    <trkseg>
      <trkpt lat="42.45937" lon="1.84479">
        <ele>1906</ele>
        <time>2019-07-01T09:11:19Z</time>
      </trkpt>
      <trkpt lat="42.45934" lon="1.84481">
        <ele>1907</ele>
        <time>2019-07-01T09:12:10Z</time>
      </trkpt>
      <trkpt lat="42.45931" lon="1.84476">
        <ele>1906</ele>
        <time>2019-07-01T09:13:50Z</time>
      </trkpt>
      <trkpt lat="42.45923" lon="1.84472">
        <ele>1906</ele>
        <time>2019-07-01T09:13:59Z</time>
      </trkpt>
      <trkpt lat="42.45918" lon="1.84469">
        <ele>1906</ele>
        <time>2019-07-01T09:14:04Z</time>
      </trkpt>
      <trkpt lat="42.45915" lon="1.84464">
        <ele>1906</ele>
        <time>2019-07-01T09:14:08Z</time>
      </trkpt>
      <trkpt lat="42.45912" lon="1.84461">
        <ele>1906</ele>
        <time>2019-07-01T09:14:15Z</time>
      </trkpt>
      <trkpt lat="42.45909" lon="1.84455">
        <ele>1907</ele>
        <time>2019-07-01T09:14:20Z</time>
      </trkpt>
      <trkpt lat="42.45913" lon="1.84456">
        <ele>1907</ele>
        <time>2019-07-01T09:14:59Z</time>
      </trkpt>
      <trkpt lat="42.45919" lon="1.84463">
        <ele>1907</ele>
        <time>2019-07-01T09:15:07Z</time>
      </trkpt>
      <trkpt lat="42.45925" lon="1.84472">
        <ele>1907</ele>
        <time>2019-07-01T09:15:15Z</time>
      </trkpt>
      <trkpt lat="42.4593" lon="1.84478">
        <ele>1906</ele>
        <time>2019-07-01T09:15:32Z</time>
      </trkpt>
      <trkpt lat="42.45927" lon="1.84472">
        <ele>1906</ele>
        <time>2019-07-01T09:21:45Z</time>
      </trkpt>
      <trkpt lat="42.45921" lon="1.84466">
        <ele>1907</ele>
        <time>2019-07-01T09:21:53Z</time>
      </trkpt>
      <trkpt lat="42.45915" lon="1.84459">
        <ele>1906</ele>
        <time>2019-07-01T09:22:02Z</time>
      </trkpt>
      <trkpt lat="42.45908" lon="1.8445">
        <ele>1906</ele>
        <time>2019-07-01T09:22:14Z</time>
      </trkpt>
      <trkpt lat="42.45901" lon="1.84446">
        <ele>1906</ele>
        <time>2019-07-01T09:22:36Z</time>
      </trkpt>
      <trkpt lat="42.45895" lon="1.84442">
        <ele>1905</ele>
        <time>2019-07-01T09:24:06Z</time>
      </trkpt>
      <trkpt lat="42.4589" lon="1.84438">
        <ele>1906</ele>
        <time>2019-07-01T09:24:10Z</time>
      </trkpt>
      <trkpt lat="42.45887" lon="1.84434">
        <ele>1906</ele>
        <time>2019-07-01T09:24:13Z</time>
      </trkpt>
      <trkpt lat="42.45878" lon="1.84431">
        <ele>1906</ele>
        <time>2019-07-01T09:24:21Z</time>
      </trkpt>
      <trkpt lat="42.45864" lon="1.84423">
        <ele>1906</ele>
        <time>2019-07-01T09:24:34Z</time>
      </trkpt>
      <trkpt lat="42.4586" lon="1.84418">
        <ele>1906</ele>
        <time>2019-07-01T09:24:39Z</time>
      </trkpt>
      <trkpt lat="42.45856" lon="1.84415">
        <ele>1906</ele>
        <time>2019-07-01T09:24:44Z</time>
      </trkpt>
      <trkpt lat="42.45851" lon="1.84411">
        <ele>1906</ele>
        <time>2019-07-01T09:24:49Z</time>
      </trkpt>
      <trkpt lat="42.45847" lon="1.84409">
        <ele>1906</ele>
        <time>2019-07-01T09:24:54Z</time>
      </trkpt>
      <trkpt lat="42.45841" lon="1.84404">
        <ele>1906</ele>
        <time>2019-07-01T09:25:00Z</time>
      </trkpt>
      <trkpt lat="42.45839" lon="1.84397">
        <ele>1906</ele>
        <time>2019-07-01T09:25:17Z</time>
      </trkpt>
      <trkpt lat="42.45839" lon="1.84401">
        <ele>1906</ele>
        <time>2019-07-01T09:26:08Z</time>
      </trkpt>
      <trkpt lat="42.45835" lon="1.84398">
        <ele>1906</ele>
        <time>2019-07-01T09:26:18Z</time>
      </trkpt>
      <trkpt lat="42.45833" lon="1.84388">
        <ele>1906</ele>
        <time>2019-07-01T09:26:38Z</time>
      </trkpt>
      <trkpt lat="42.45816" lon="1.84364">
        <ele>1906</ele>
        <time>2019-07-01T09:27:04Z</time>
      </trkpt>
      <trkpt lat="42.4581" lon="1.84348">
        <ele>1907</ele>
        <time>2019-07-01T09:27:16Z</time>
      </trkpt>
      <trkpt lat="42.45807" lon="1.84345">
        <ele>1907</ele>
        <time>2019-07-01T09:27:24Z</time>
      </trkpt>
      <trkpt lat="42.45801" lon="1.84344">
        <ele>1907</ele>
        <time>2019-07-01T09:27:34Z</time>
      </trkpt>
      <trkpt lat="42.45796" lon="1.84344">
        <ele>1907</ele>
        <time>2019-07-01T09:27:41Z</time>
      </trkpt>
      <trkpt lat="42.45792" lon="1.84349">
        <ele>1906</ele>
        <time>2019-07-01T09:27:47Z</time>
      </trkpt>
      <trkpt lat="42.45787" lon="1.84351">
        <ele>1907</ele>
        <time>2019-07-01T09:27:52Z</time>
      </trkpt>
      <trkpt lat="42.45783" lon="1.84357">
        <ele>1907</ele>
        <time>2019-07-01T09:28:07Z</time>
      </trkpt>
      <trkpt lat="42.45772" lon="1.84358">
        <ele>1907</ele>
        <time>2019-07-01T09:28:16Z</time>
      </trkpt>
      <trkpt lat="42.45768" lon="1.8436">
        <ele>1907</ele>
        <time>2019-07-01T09:28:20Z</time>
      </trkpt>
      <trkpt lat="42.45763" lon="1.84362">
        <ele>1907</ele>
        <time>2019-07-01T09:28:24Z</time>
      </trkpt>
      <trkpt lat="42.45758" lon="1.84363">
        <ele>1907</ele>
        <time>2019-07-01T09:28:29Z</time>
      </trkpt>
      <trkpt lat="42.45748" lon="1.84366">
        <ele>1906</ele>
        <time>2019-07-01T09:28:37Z</time>
      </trkpt>
      <trkpt lat="42.45743" lon="1.84368">
        <ele>1907</ele>
        <time>2019-07-01T09:28:42Z</time>
      </trkpt>
      <trkpt lat="42.45738" lon="1.84371">
        <ele>1906</ele>
        <time>2019-07-01T09:28:47Z</time>
      </trkpt>
      <trkpt lat="42.45727" lon="1.84375">
        <ele>1908</ele>
        <time>2019-07-01T09:28:56Z</time>
      </trkpt>
      <trkpt lat="42.45722" lon="1.84377">
        <ele>1907</ele>
        <time>2019-07-01T09:29:01Z</time>
      </trkpt>
      <trkpt lat="42.45716" lon="1.8438">
        <ele>1908</ele>
        <time>2019-07-01T09:29:06Z</time>
      </trkpt>
      <trkpt lat="42.45711" lon="1.84382">
        <ele>1908</ele>
        <time>2019-07-01T09:29:11Z</time>
      </trkpt>
      <trkpt lat="42.45706" lon="1.84383">
        <ele>1909</ele>
        <time>2019-07-01T09:29:16Z</time>
      </trkpt>
      <trkpt lat="42.45701" lon="1.84383">
        <ele>1909</ele>
        <time>2019-07-01T09:29:21Z</time>
      </trkpt>
      <trkpt lat="42.45696" lon="1.84386">
        <ele>1909</ele>
        <time>2019-07-01T09:29:25Z</time>
      </trkpt>
      <trkpt lat="42.45692" lon="1.84388">
        <ele>1910</ele>
        <time>2019-07-01T09:29:29Z</time>
      </trkpt>
      <trkpt lat="42.45686" lon="1.84389">
        <ele>1910</ele>
        <time>2019-07-01T09:29:34Z</time>
      </trkpt>
      <trkpt lat="42.45671" lon="1.84393">
        <ele>1910</ele>
        <time>2019-07-01T09:29:46Z</time>
      </trkpt>
      <trkpt lat="42.45668" lon="1.84394">
        <ele>1909</ele>
        <time>2019-07-01T09:29:51Z</time>
      </trkpt>
      <trkpt lat="42.45644" lon="1.84403">
        <ele>1911</ele>
        <time>2019-07-01T09:30:23Z</time>
      </trkpt>
      <trkpt lat="42.45637" lon="1.84402">
        <ele>1912</ele>
        <time>2019-07-01T09:30:31Z</time>
      </trkpt>
      <trkpt lat="42.45628" lon="1.84403">
        <ele>1912</ele>
        <time>2019-07-01T09:30:39Z</time>
      </trkpt>
      <trkpt lat="42.45623" lon="1.84399">
        <ele>1912</ele>
        <time>2019-07-01T09:30:43Z</time>
      </trkpt>
      <trkpt lat="42.45619" lon="1.84399">
        <ele>1912</ele>
        <time>2019-07-01T09:30:47Z</time>
      </trkpt>
      <trkpt lat="42.45614" lon="1.84396">
        <ele>1912</ele>
        <time>2019-07-01T09:30:51Z</time>
      </trkpt>
      <trkpt lat="42.45609" lon="1.84394">
        <ele>1912</ele>
        <time>2019-07-01T09:30:56Z</time>
      </trkpt>
      <trkpt lat="42.45601" lon="1.84386">
        <ele>1912</ele>
        <time>2019-07-01T09:31:04Z</time>
      </trkpt>
      <trkpt lat="42.45597" lon="1.84383">
        <ele>1912</ele>
        <time>2019-07-01T09:31:08Z</time>
      </trkpt>
      <trkpt lat="42.4559" lon="1.84374">
        <ele>1913</ele>
        <time>2019-07-01T09:31:15Z</time>
      </trkpt>
      <trkpt lat="42.45587" lon="1.8437">
        <ele>1913</ele>
        <time>2019-07-01T09:31:19Z</time>
      </trkpt>
      <trkpt lat="42.45583" lon="1.84366">
        <ele>1913</ele>
        <time>2019-07-01T09:31:23Z</time>
      </trkpt>
      <trkpt lat="42.45579" lon="1.84361">
        <ele>1913</ele>
        <time>2019-07-01T09:31:27Z</time>
      </trkpt>
      <trkpt lat="42.45573" lon="1.84352">
        <ele>1914</ele>
        <time>2019-07-01T09:31:36Z</time>
      </trkpt>
      <trkpt lat="42.45554" lon="1.84329">
        <ele>1914</ele>
        <time>2019-07-01T09:31:56Z</time>
      </trkpt>
      <trkpt lat="42.4555" lon="1.84325">
        <ele>1913</ele>
        <time>2019-07-01T09:32:00Z</time>
      </trkpt>
      <trkpt lat="42.45547" lon="1.84321">
        <ele>1915</ele>
        <time>2019-07-01T09:32:04Z</time>
      </trkpt>
      <trkpt lat="42.45541" lon="1.84317">
        <ele>1914</ele>
        <time>2019-07-01T09:32:10Z</time>
      </trkpt>
      <trkpt lat="42.45532" lon="1.84317">
        <ele>1914</ele>
        <time>2019-07-01T09:32:19Z</time>
      </trkpt>
      <trkpt lat="42.45528" lon="1.84318">
        <ele>1914</ele>
        <time>2019-07-01T09:32:23Z</time>
      </trkpt>
      <trkpt lat="42.45524" lon="1.84321">
        <ele>1914</ele>
        <time>2019-07-01T09:32:27Z</time>
      </trkpt>
      <trkpt lat="42.4552" lon="1.84324">
        <ele>1914</ele>
        <time>2019-07-01T09:32:31Z</time>
      </trkpt>
      <trkpt lat="42.45518" lon="1.84329">
        <ele>1914</ele>
        <time>2019-07-01T09:32:34Z</time>
      </trkpt>
      <trkpt lat="42.45491" lon="1.84347">
        <ele>1916</ele>
        <time>2019-07-01T09:33:02Z</time>
      </trkpt>
      <trkpt lat="42.45483" lon="1.84348">
        <ele>1917</ele>
        <time>2019-07-01T09:33:12Z</time>
      </trkpt>
      <trkpt lat="42.45481" lon="1.84344">
        <ele>1918</ele>
        <time>2019-07-01T09:33:17Z</time>
      </trkpt>
      <trkpt lat="42.45484" lon="1.84342">
        <ele>1917</ele>
        <time>2019-07-01T09:36:54Z</time>
      </trkpt>
      <trkpt lat="42.45494" lon="1.84339">
        <ele>1914</ele>
        <time>2019-07-01T09:37:14Z</time>
      </trkpt>
      <trkpt lat="42.45496" lon="1.84334">
        <ele>1913</ele>
        <time>2019-07-01T09:37:19Z</time>
      </trkpt>
      <trkpt lat="42.45504" lon="1.84321">
        <ele>1912</ele>
        <time>2019-07-01T09:37:32Z</time>
      </trkpt>
      <trkpt lat="42.45506" lon="1.84313">
        <ele>1912</ele>
        <time>2019-07-01T09:37:41Z</time>
      </trkpt>
      <trkpt lat="42.45512" lon="1.84302">
        <ele>1911</ele>
        <time>2019-07-01T09:37:52Z</time>
      </trkpt>
      <trkpt lat="42.45514" lon="1.84298">
        <ele>1911</ele>
        <time>2019-07-01T09:37:56Z</time>
      </trkpt>
      <trkpt lat="42.45517" lon="1.84294">
        <ele>1910</ele>
        <time>2019-07-01T09:38:00Z</time>
      </trkpt>
      <trkpt lat="42.45522" lon="1.84291">
        <ele>1910</ele>
        <time>2019-07-01T09:38:07Z</time>
      </trkpt>
      <trkpt lat="42.45524" lon="1.84286">
        <ele>1909</ele>
        <time>2019-07-01T09:38:12Z</time>
      </trkpt>
      <trkpt lat="42.45521" lon="1.84273">
        <ele>1909</ele>
        <time>2019-07-01T09:38:20Z</time>
      </trkpt>
      <trkpt lat="42.45519" lon="1.84268">
        <ele>1909</ele>
        <time>2019-07-01T09:38:23Z</time>
      </trkpt>
      <trkpt lat="42.45515" lon="1.84265">
        <ele>1909</ele>
        <time>2019-07-01T09:38:27Z</time>
      </trkpt>
      <trkpt lat="42.4552" lon="1.8426">
        <ele>1909</ele>
        <time>2019-07-01T09:39:09Z</time>
      </trkpt>
      <trkpt lat="42.45523" lon="1.84257">
        <ele>1909</ele>
        <time>2019-07-01T09:39:13Z</time>
      </trkpt>
      <trkpt lat="42.45526" lon="1.84252">
        <ele>1910</ele>
        <time>2019-07-01T09:39:19Z</time>
      </trkpt>
      <trkpt lat="42.4553" lon="1.84245">
        <ele>1910</ele>
        <time>2019-07-01T09:39:25Z</time>
      </trkpt>
      <trkpt lat="42.4554" lon="1.84231">
        <ele>1912</ele>
        <time>2019-07-01T09:39:40Z</time>
      </trkpt>
      <trkpt lat="42.45543" lon="1.84225">
        <ele>1912</ele>
        <time>2019-07-01T09:39:45Z</time>
      </trkpt>
      <trkpt lat="42.4555" lon="1.84215">
        <ele>1914</ele>
        <time>2019-07-01T09:39:56Z</time>
      </trkpt>
      <trkpt lat="42.45562" lon="1.84211">
        <ele>1915</ele>
        <time>2019-07-01T09:40:06Z</time>
      </trkpt>
      <trkpt lat="42.45569" lon="1.84204">
        <ele>1916</ele>
        <time>2019-07-01T09:40:15Z</time>
      </trkpt>
      <trkpt lat="42.45573" lon="1.84201">
        <ele>1916</ele>
        <time>2019-07-01T09:40:19Z</time>
      </trkpt>
      <trkpt lat="42.45578" lon="1.8419">
        <ele>1916</ele>
        <time>2019-07-01T09:40:27Z</time>
      </trkpt>
      <trkpt lat="42.45582" lon="1.84185">
        <ele>1916</ele>
        <time>2019-07-01T09:40:32Z</time>
      </trkpt>
      <trkpt lat="42.45584" lon="1.84176">
        <ele>1917</ele>
        <time>2019-07-01T09:40:40Z</time>
      </trkpt>
      <trkpt lat="42.45584" lon="1.84165">
        <ele>1918</ele>
        <time>2019-07-01T09:40:56Z</time>
      </trkpt>
      <trkpt lat="42.45588" lon="1.84148">
        <ele>1919</ele>
        <time>2019-07-01T09:41:11Z</time>
      </trkpt>
      <trkpt lat="42.45589" lon="1.8413">
        <ele>1921</ele>
        <time>2019-07-01T09:41:24Z</time>
      </trkpt>
      <trkpt lat="42.45595" lon="1.84116">
        <ele>1922</ele>
        <time>2019-07-01T09:41:37Z</time>
      </trkpt>
      <trkpt lat="42.45596" lon="1.84095">
        <ele>1923</ele>
        <time>2019-07-01T09:41:51Z</time>
      </trkpt>
      <trkpt lat="42.456" lon="1.84085">
        <ele>1924</ele>
        <time>2019-07-01T09:42:01Z</time>
      </trkpt>
      <trkpt lat="42.45594" lon="1.84071">
        <ele>1925</ele>
        <time>2019-07-01T09:42:10Z</time>
      </trkpt>
      <trkpt lat="42.45593" lon="1.84055">
        <ele>1927</ele>
        <time>2019-07-01T09:42:25Z</time>
      </trkpt>
      <trkpt lat="42.45593" lon="1.84044">
        <ele>1928</ele>
        <time>2019-07-01T09:42:35Z</time>
      </trkpt>
      <trkpt lat="42.45587" lon="1.8403">
        <ele>1930</ele>
        <time>2019-07-01T09:42:48Z</time>
      </trkpt>
      <trkpt lat="42.45585" lon="1.84019">
        <ele>1930</ele>
        <time>2019-07-01T09:42:56Z</time>
      </trkpt>
      <trkpt lat="42.45586" lon="1.84011">
        <ele>1931</ele>
        <time>2019-07-01T09:43:03Z</time>
      </trkpt>
      <trkpt lat="42.45576" lon="1.83998">
        <ele>1932</ele>
        <time>2019-07-01T09:43:15Z</time>
      </trkpt>
      <trkpt lat="42.4557" lon="1.83985">
        <ele>1934</ele>
        <time>2019-07-01T09:43:25Z</time>
      </trkpt>
      <trkpt lat="42.4557" lon="1.83977">
        <ele>1935</ele>
        <time>2019-07-01T09:43:33Z</time>
      </trkpt>
      <trkpt lat="42.45571" lon="1.83967">
        <ele>1936</ele>
        <time>2019-07-01T09:43:43Z</time>
      </trkpt>
      <trkpt lat="42.45572" lon="1.83955">
        <ele>1937</ele>
        <time>2019-07-01T09:43:53Z</time>
      </trkpt>
      <trkpt lat="42.45577" lon="1.83939">
        <ele>1939</ele>
        <time>2019-07-01T09:44:07Z</time>
      </trkpt>
      <trkpt lat="42.45578" lon="1.8392">
        <ele>1941</ele>
        <time>2019-07-01T09:44:20Z</time>
      </trkpt>
      <trkpt lat="42.45579" lon="1.83913">
        <ele>1941</ele>
        <time>2019-07-01T09:44:24Z</time>
      </trkpt>
      <trkpt lat="42.45584" lon="1.83907">
        <ele>1943</ele>
        <time>2019-07-01T09:44:32Z</time>
      </trkpt>
      <trkpt lat="42.45593" lon="1.83899">
        <ele>1943</ele>
        <time>2019-07-01T09:44:43Z</time>
      </trkpt>
      <trkpt lat="42.45599" lon="1.83886">
        <ele>1945</ele>
        <time>2019-07-01T09:44:54Z</time>
      </trkpt>
      <trkpt lat="42.45603" lon="1.83879">
        <ele>1946</ele>
        <time>2019-07-01T09:45:03Z</time>
      </trkpt>
      <trkpt lat="42.45609" lon="1.83876">
        <ele>1946</ele>
        <time>2019-07-01T09:45:09Z</time>
      </trkpt>
      <trkpt lat="42.45613" lon="1.83869">
        <ele>1947</ele>
        <time>2019-07-01T09:45:15Z</time>
      </trkpt>
      <trkpt lat="42.45617" lon="1.83858">
        <ele>1949</ele>
        <time>2019-07-01T09:45:28Z</time>
      </trkpt>
      <trkpt lat="42.45621" lon="1.83846">
        <ele>1952</ele>
        <time>2019-07-01T09:45:43Z</time>
      </trkpt>
      <trkpt lat="42.45621" lon="1.83831">
        <ele>1954</ele>
        <time>2019-07-01T09:45:56Z</time>
      </trkpt>
      <trkpt lat="42.45627" lon="1.83811">
        <ele>1957</ele>
        <time>2019-07-01T09:46:17Z</time>
      </trkpt>
      <trkpt lat="42.45629" lon="1.83801">
        <ele>1959</ele>
        <time>2019-07-01T09:46:32Z</time>
      </trkpt>
      <trkpt lat="42.45629" lon="1.83792">
        <ele>1960</ele>
        <time>2019-07-01T09:46:42Z</time>
      </trkpt>
      <trkpt lat="42.45633" lon="1.83785">
        <ele>1961</ele>
        <time>2019-07-01T09:46:49Z</time>
      </trkpt>
      <trkpt lat="42.45634" lon="1.83773">
        <ele>1963</ele>
        <time>2019-07-01T09:47:01Z</time>
      </trkpt>
      <trkpt lat="42.45635" lon="1.83764">
        <ele>1965</ele>
        <time>2019-07-01T09:47:11Z</time>
      </trkpt>
      <trkpt lat="42.45637" lon="1.83758">
        <ele>1965</ele>
        <time>2019-07-01T09:47:22Z</time>
      </trkpt>
      <trkpt lat="42.45637" lon="1.83751">
        <ele>1967</ele>
        <time>2019-07-01T09:47:32Z</time>
      </trkpt>
      <trkpt lat="42.45636" lon="1.83745">
        <ele>1967</ele>
        <time>2019-07-01T09:47:37Z</time>
      </trkpt>
      <trkpt lat="42.45636" lon="1.83737">
        <ele>1969</ele>
        <time>2019-07-01T09:47:47Z</time>
      </trkpt>
      <trkpt lat="42.45638" lon="1.83731">
        <ele>1970</ele>
        <time>2019-07-01T09:47:57Z</time>
      </trkpt>
      <trkpt lat="42.4564" lon="1.83715">
        <ele>1973</ele>
        <time>2019-07-01T09:48:17Z</time>
      </trkpt>
      <trkpt lat="42.4564" lon="1.83708">
        <ele>1975</ele>
        <time>2019-07-01T09:48:27Z</time>
      </trkpt>
      <trkpt lat="42.45642" lon="1.837">
        <ele>1977</ele>
        <time>2019-07-01T09:48:37Z</time>
      </trkpt>
      <trkpt lat="42.45645" lon="1.83692">
        <ele>1978</ele>
        <time>2019-07-01T09:48:47Z</time>
      </trkpt>
      <trkpt lat="42.4565" lon="1.83682">
        <ele>1981</ele>
        <time>2019-07-01T09:49:02Z</time>
      </trkpt>
      <trkpt lat="42.45649" lon="1.83673">
        <ele>1982</ele>
        <time>2019-07-01T09:49:12Z</time>
      </trkpt>
      <trkpt lat="42.45652" lon="1.83666">
        <ele>1984</ele>
        <time>2019-07-01T09:49:22Z</time>
      </trkpt>
      <trkpt lat="42.45652" lon="1.83658">
        <ele>1985</ele>
        <time>2019-07-01T09:49:32Z</time>
      </trkpt>
      <trkpt lat="42.45657" lon="1.8366">
        <ele>1986</ele>
        <time>2019-07-01T09:50:22Z</time>
      </trkpt>
      <trkpt lat="42.45659" lon="1.83666">
        <ele>1986</ele>
        <time>2019-07-01T09:52:32Z</time>
      </trkpt>
      <trkpt lat="42.45663" lon="1.83658">
        <ele>1986</ele>
        <time>2019-07-01T09:53:08Z</time>
      </trkpt>
      <trkpt lat="42.45667" lon="1.83652">
        <ele>1986</ele>
        <time>2019-07-01T09:53:13Z</time>
      </trkpt>
      <trkpt lat="42.45667" lon="1.83639">
        <ele>1986</ele>
        <time>2019-07-01T09:53:22Z</time>
      </trkpt>
      <trkpt lat="42.45673" lon="1.8362">
        <ele>1988</ele>
        <time>2019-07-01T09:53:41Z</time>
      </trkpt>
      <trkpt lat="42.45675" lon="1.83609">
        <ele>1989</ele>
        <time>2019-07-01T09:53:56Z</time>
      </trkpt>
      <trkpt lat="42.45679" lon="1.83601">
        <ele>1990</ele>
        <time>2019-07-01T09:54:07Z</time>
      </trkpt>
      <trkpt lat="42.45683" lon="1.83588">
        <ele>1991</ele>
        <time>2019-07-01T09:54:17Z</time>
      </trkpt>
      <trkpt lat="42.45692" lon="1.83572">
        <ele>1994</ele>
        <time>2019-07-01T09:54:40Z</time>
      </trkpt>
      <trkpt lat="42.45694" lon="1.83562">
        <ele>1995</ele>
        <time>2019-07-01T09:54:50Z</time>
      </trkpt>
      <trkpt lat="42.45701" lon="1.83548">
        <ele>1998</ele>
        <time>2019-07-01T09:55:10Z</time>
      </trkpt>
      <trkpt lat="42.45705" lon="1.8354">
        <ele>1999</ele>
        <time>2019-07-01T09:55:20Z</time>
      </trkpt>
      <trkpt lat="42.45706" lon="1.83531">
        <ele>2000</ele>
        <time>2019-07-01T09:55:30Z</time>
      </trkpt>
      <trkpt lat="42.45704" lon="1.83524">
        <ele>2001</ele>
        <time>2019-07-01T09:55:40Z</time>
      </trkpt>
      <trkpt lat="42.45708" lon="1.83521">
        <ele>2002</ele>
        <time>2019-07-01T09:55:50Z</time>
      </trkpt>
      <trkpt lat="42.45711" lon="1.83519">
        <ele>2003</ele>
        <time>2019-07-01T09:56:15Z</time>
      </trkpt>
      <trkpt lat="42.45713" lon="1.83514">
        <ele>2003</ele>
        <time>2019-07-01T09:56:30Z</time>
      </trkpt>
      <trkpt lat="42.45713" lon="1.83503">
        <ele>2004</ele>
        <time>2019-07-01T09:56:40Z</time>
      </trkpt>
      <trkpt lat="42.45715" lon="1.83499">
        <ele>2005</ele>
        <time>2019-07-01T09:56:44Z</time>
      </trkpt>
      <trkpt lat="42.45717" lon="1.83491">
        <ele>2004</ele>
        <time>2019-07-01T09:56:51Z</time>
      </trkpt>
      <trkpt lat="42.4572" lon="1.83487">
        <ele>2005</ele>
        <time>2019-07-01T09:56:58Z</time>
      </trkpt>
      <trkpt lat="42.45724" lon="1.83478">
        <ele>2006</ele>
        <time>2019-07-01T09:57:08Z</time>
      </trkpt>
      <trkpt lat="42.45725" lon="1.83473">
        <ele>2006</ele>
        <time>2019-07-01T09:57:12Z</time>
      </trkpt>
      <trkpt lat="42.45727" lon="1.83464">
        <ele>2007</ele>
        <time>2019-07-01T09:57:21Z</time>
      </trkpt>
      <trkpt lat="42.45737" lon="1.83445">
        <ele>2010</ele>
        <time>2019-07-01T09:57:51Z</time>
      </trkpt>
      <trkpt lat="42.45742" lon="1.83438">
        <ele>2011</ele>
        <time>2019-07-01T09:58:00Z</time>
      </trkpt>
      <trkpt lat="42.45744" lon="1.83432">
        <ele>2012</ele>
        <time>2019-07-01T09:58:05Z</time>
      </trkpt>
      <trkpt lat="42.45747" lon="1.83428">
        <ele>2013</ele>
        <time>2019-07-01T09:58:15Z</time>
      </trkpt>
      <trkpt lat="42.45753" lon="1.83407">
        <ele>2015</ele>
        <time>2019-07-01T09:58:41Z</time>
      </trkpt>
      <trkpt lat="42.45761" lon="1.83382">
        <ele>2019</ele>
        <time>2019-07-01T09:59:11Z</time>
      </trkpt>
      <trkpt lat="42.45768" lon="1.83358">
        <ele>2022</ele>
        <time>2019-07-01T09:59:42Z</time>
      </trkpt>
      <trkpt lat="42.45773" lon="1.83353">
        <ele>2023</ele>
        <time>2019-07-01T09:59:52Z</time>
      </trkpt>
      <trkpt lat="42.45785" lon="1.83325">
        <ele>2027</ele>
        <time>2019-07-01T10:00:27Z</time>
      </trkpt>
      <trkpt lat="42.45791" lon="1.83322">
        <ele>2028</ele>
        <time>2019-07-01T10:00:37Z</time>
      </trkpt>
      <trkpt lat="42.45795" lon="1.83312">
        <ele>2028</ele>
        <time>2019-07-01T10:00:47Z</time>
      </trkpt>
      <trkpt lat="42.45798" lon="1.83306">
        <ele>2030</ele>
        <time>2019-07-01T10:00:55Z</time>
      </trkpt>
      <trkpt lat="42.45803" lon="1.83298">
        <ele>2031</ele>
        <time>2019-07-01T10:01:07Z</time>
      </trkpt>
      <trkpt lat="42.45805" lon="1.83288">
        <ele>2032</ele>
        <time>2019-07-01T10:01:18Z</time>
      </trkpt>
      <trkpt lat="42.45805" lon="1.83277">
        <ele>2033</ele>
        <time>2019-07-01T10:01:29Z</time>
      </trkpt>
      <trkpt lat="42.45813" lon="1.83268">
        <ele>2035</ele>
        <time>2019-07-01T10:01:54Z</time>
      </trkpt>
      <trkpt lat="42.45817" lon="1.83263">
        <ele>2037</ele>
        <time>2019-07-01T10:02:04Z</time>
      </trkpt>
      <trkpt lat="42.45821" lon="1.8326">
        <ele>2038</ele>
        <time>2019-07-01T10:02:14Z</time>
      </trkpt>
      <trkpt lat="42.45825" lon="1.83258">
        <ele>2039</ele>
        <time>2019-07-01T10:02:24Z</time>
      </trkpt>
      <trkpt lat="42.45823" lon="1.83252">
        <ele>2039</ele>
        <time>2019-07-01T10:02:59Z</time>
      </trkpt>
      <trkpt lat="42.45824" lon="1.83246">
        <ele>2041</ele>
        <time>2019-07-01T10:03:39Z</time>
      </trkpt>
      <trkpt lat="42.45827" lon="1.83232">
        <ele>2042</ele>
        <time>2019-07-01T10:03:54Z</time>
      </trkpt>
      <trkpt lat="42.4583" lon="1.83224">
        <ele>2042</ele>
        <time>2019-07-01T10:04:02Z</time>
      </trkpt>
      <trkpt lat="42.45831" lon="1.83216">
        <ele>2043</ele>
        <time>2019-07-01T10:04:12Z</time>
      </trkpt>
      <trkpt lat="42.45832" lon="1.83207">
        <ele>2045</ele>
        <time>2019-07-01T10:04:22Z</time>
      </trkpt>
      <trkpt lat="42.45836" lon="1.83204">
        <ele>2046</ele>
        <time>2019-07-01T10:04:27Z</time>
      </trkpt>
      <trkpt lat="42.4584" lon="1.83197">
        <ele>2047</ele>
        <time>2019-07-01T10:04:36Z</time>
      </trkpt>
      <trkpt lat="42.45843" lon="1.83191">
        <ele>2047</ele>
        <time>2019-07-01T10:04:42Z</time>
      </trkpt>
      <trkpt lat="42.45845" lon="1.83185">
        <ele>2047</ele>
        <time>2019-07-01T10:04:47Z</time>
      </trkpt>
      <trkpt lat="42.45857" lon="1.83174">
        <ele>2049</ele>
        <time>2019-07-01T10:05:04Z</time>
      </trkpt>
      <trkpt lat="42.4586" lon="1.83169">
        <ele>2051</ele>
        <time>2019-07-01T10:05:13Z</time>
      </trkpt>
      <trkpt lat="42.4586" lon="1.83163">
        <ele>2051</ele>
        <time>2019-07-01T10:05:33Z</time>
      </trkpt>
      <trkpt lat="42.45863" lon="1.83158">
        <ele>2054</ele>
        <time>2019-07-01T10:05:40Z</time>
      </trkpt>
      <trkpt lat="42.45865" lon="1.83153">
        <ele>2054</ele>
        <time>2019-07-01T10:05:44Z</time>
      </trkpt>
      <trkpt lat="42.4587" lon="1.83147">
        <ele>2054</ele>
        <time>2019-07-01T10:05:52Z</time>
      </trkpt>
      <trkpt lat="42.45873" lon="1.83138">
        <ele>2055</ele>
        <time>2019-07-01T10:06:00Z</time>
      </trkpt>
      <trkpt lat="42.4589" lon="1.83121">
        <ele>2060</ele>
        <time>2019-07-01T10:06:34Z</time>
      </trkpt>
      <trkpt lat="42.45893" lon="1.83112">
        <ele>2062</ele>
        <time>2019-07-01T10:06:49Z</time>
      </trkpt>
      <trkpt lat="42.45898" lon="1.83107">
        <ele>2064</ele>
        <time>2019-07-01T10:06:59Z</time>
      </trkpt>
      <trkpt lat="42.45908" lon="1.83093">
        <ele>2068</ele>
        <time>2019-07-01T10:07:20Z</time>
      </trkpt>
      <trkpt lat="42.45912" lon="1.83087">
        <ele>2069</ele>
        <time>2019-07-01T10:07:30Z</time>
      </trkpt>
      <trkpt lat="42.45917" lon="1.83083">
        <ele>2071</ele>
        <time>2019-07-01T10:07:40Z</time>
      </trkpt>
      <trkpt lat="42.45923" lon="1.83082">
        <ele>2072</ele>
        <time>2019-07-01T10:07:50Z</time>
      </trkpt>
      <trkpt lat="42.45927" lon="1.83078">
        <ele>2072</ele>
        <time>2019-07-01T10:07:56Z</time>
      </trkpt>
      <trkpt lat="42.45927" lon="1.83072">
        <ele>2073</ele>
        <time>2019-07-01T10:08:03Z</time>
      </trkpt>
      <trkpt lat="42.45927" lon="1.83063">
        <ele>2074</ele>
        <time>2019-07-01T10:08:14Z</time>
      </trkpt>
      <trkpt lat="42.45928" lon="1.83064">
        <ele>2077</ele>
        <time>2019-07-01T10:11:29Z</time>
      </trkpt>
      <trkpt lat="42.45927" lon="1.8306">
        <ele>2078</ele>
        <time>2019-07-01T10:13:09Z</time>
      </trkpt>
      <trkpt lat="42.45924" lon="1.83057">
        <ele>2079</ele>
        <time>2019-07-01T10:15:20Z</time>
      </trkpt>
      <trkpt lat="42.45926" lon="1.83053">
        <ele>2079</ele>
        <time>2019-07-01T10:16:13Z</time>
      </trkpt>
      <trkpt lat="42.45927" lon="1.83052">
        <ele>2080</ele>
        <time>2019-07-01T10:17:56Z</time>
      </trkpt>
      <trkpt lat="42.45932" lon="1.83047">
        <ele>2080</ele>
        <time>2019-07-01T10:18:14Z</time>
      </trkpt>
      <trkpt lat="42.45944" lon="1.83032">
        <ele>2081</ele>
        <time>2019-07-01T10:18:34Z</time>
      </trkpt>
      <trkpt lat="42.45949" lon="1.83029">
        <ele>2082</ele>
        <time>2019-07-01T10:18:50Z</time>
      </trkpt>
      <trkpt lat="42.45951" lon="1.83018">
        <ele>2084</ele>
        <time>2019-07-01T10:19:05Z</time>
      </trkpt>
      <trkpt lat="42.45954" lon="1.8301">
        <ele>2085</ele>
        <time>2019-07-01T10:19:15Z</time>
      </trkpt>
      <trkpt lat="42.45966" lon="1.82988">
        <ele>2090</ele>
        <time>2019-07-01T10:19:44Z</time>
      </trkpt>
      <trkpt lat="42.45966" lon="1.82977">
        <ele>2090</ele>
        <time>2019-07-01T10:19:55Z</time>
      </trkpt>
      <trkpt lat="42.45971" lon="1.82968">
        <ele>2093</ele>
        <time>2019-07-01T10:20:15Z</time>
      </trkpt>
      <trkpt lat="42.45973" lon="1.82958">
        <ele>2095</ele>
        <time>2019-07-01T10:20:30Z</time>
      </trkpt>
      <trkpt lat="42.45976" lon="1.82945">
        <ele>2096</ele>
        <time>2019-07-01T10:20:43Z</time>
      </trkpt>
      <trkpt lat="42.45983" lon="1.82928">
        <ele>2098</ele>
        <time>2019-07-01T10:21:01Z</time>
      </trkpt>
      <trkpt lat="42.45987" lon="1.82911">
        <ele>2101</ele>
        <time>2019-07-01T10:21:22Z</time>
      </trkpt>
      <trkpt lat="42.45989" lon="1.82902">
        <ele>2102</ele>
        <time>2019-07-01T10:21:32Z</time>
      </trkpt>
      <trkpt lat="42.45993" lon="1.82897">
        <ele>2103</ele>
        <time>2019-07-01T10:21:42Z</time>
      </trkpt>
      <trkpt lat="42.46001" lon="1.82862">
        <ele>2105</ele>
        <time>2019-07-01T10:22:18Z</time>
      </trkpt>
      <trkpt lat="42.46005" lon="1.82846">
        <ele>2107</ele>
        <time>2019-07-01T10:22:32Z</time>
      </trkpt>
      <trkpt lat="42.46008" lon="1.82823">
        <ele>2108</ele>
        <time>2019-07-01T10:22:55Z</time>
      </trkpt>
      <trkpt lat="42.46011" lon="1.82813">
        <ele>2110</ele>
        <time>2019-07-01T10:23:06Z</time>
      </trkpt>
      <trkpt lat="42.46015" lon="1.82796">
        <ele>2110</ele>
        <time>2019-07-01T10:23:22Z</time>
      </trkpt>
      <trkpt lat="42.46015" lon="1.82782">
        <ele>2112</ele>
        <time>2019-07-01T10:23:36Z</time>
      </trkpt>
      <trkpt lat="42.4602" lon="1.82763">
        <ele>2114</ele>
        <time>2019-07-01T10:23:54Z</time>
      </trkpt>
      <trkpt lat="42.46021" lon="1.82751">
        <ele>2117</ele>
        <time>2019-07-01T10:24:07Z</time>
      </trkpt>
      <trkpt lat="42.46023" lon="1.82729">
        <ele>2119</ele>
        <time>2019-07-01T10:24:32Z</time>
      </trkpt>
      <trkpt lat="42.46028" lon="1.82723">
        <ele>2121</ele>
        <time>2019-07-01T10:24:42Z</time>
      </trkpt>
      <trkpt lat="42.46032" lon="1.82713">
        <ele>2123</ele>
        <time>2019-07-01T10:24:57Z</time>
      </trkpt>
      <trkpt lat="42.46037" lon="1.82703">
        <ele>2125</ele>
        <time>2019-07-01T10:25:09Z</time>
      </trkpt>
      <trkpt lat="42.46037" lon="1.82695">
        <ele>2125</ele>
        <time>2019-07-01T10:25:15Z</time>
      </trkpt>
      <trkpt lat="42.46037" lon="1.82685">
        <ele>2127</ele>
        <time>2019-07-01T10:25:27Z</time>
      </trkpt>
      <trkpt lat="42.46037" lon="1.82674">
        <ele>2128</ele>
        <time>2019-07-01T10:25:38Z</time>
      </trkpt>
      <trkpt lat="42.46037" lon="1.82663">
        <ele>2129</ele>
        <time>2019-07-01T10:25:48Z</time>
      </trkpt>
      <trkpt lat="42.46034" lon="1.82656">
        <ele>2130</ele>
        <time>2019-07-01T10:25:54Z</time>
      </trkpt>
      <trkpt lat="42.46027" lon="1.82632">
        <ele>2133</ele>
        <time>2019-07-01T10:26:24Z</time>
      </trkpt>
      <trkpt lat="42.46025" lon="1.82621">
        <ele>2134</ele>
        <time>2019-07-01T10:26:35Z</time>
      </trkpt>
      <trkpt lat="42.46026" lon="1.82593">
        <ele>2137</ele>
        <time>2019-07-01T10:27:01Z</time>
      </trkpt>
      <trkpt lat="42.46023" lon="1.82573">
        <ele>2139</ele>
        <time>2019-07-01T10:27:19Z</time>
      </trkpt>
      <trkpt lat="42.46024" lon="1.82565">
        <ele>2140</ele>
        <time>2019-07-01T10:27:24Z</time>
      </trkpt>
      <trkpt lat="42.46022" lon="1.82558">
        <ele>2141</ele>
        <time>2019-07-01T10:27:32Z</time>
      </trkpt>
      <trkpt lat="42.46019" lon="1.82551">
        <ele>2142</ele>
        <time>2019-07-01T10:27:42Z</time>
      </trkpt>
      <trkpt lat="42.46018" lon="1.82532">
        <ele>2144</ele>
        <time>2019-07-01T10:28:02Z</time>
      </trkpt>
      <trkpt lat="42.46016" lon="1.82525">
        <ele>2145</ele>
        <time>2019-07-01T10:28:12Z</time>
      </trkpt>
      <trkpt lat="42.46006" lon="1.82488">
        <ele>2148</ele>
        <time>2019-07-01T10:28:46Z</time>
      </trkpt>
      <trkpt lat="42.46004" lon="1.82482">
        <ele>2149</ele>
        <time>2019-07-01T10:28:53Z</time>
      </trkpt>
      <trkpt lat="42.46003" lon="1.82475">
        <ele>2149</ele>
        <time>2019-07-01T10:28:59Z</time>
      </trkpt>
      <trkpt lat="42.46" lon="1.8247">
        <ele>2150</ele>
        <time>2019-07-01T10:29:04Z</time>
      </trkpt>
      <trkpt lat="42.45998" lon="1.82462">
        <ele>2151</ele>
        <time>2019-07-01T10:29:12Z</time>
      </trkpt>
      <trkpt lat="42.45997" lon="1.82453">
        <ele>2151</ele>
        <time>2019-07-01T10:29:19Z</time>
      </trkpt>
      <trkpt lat="42.45996" lon="1.82444">
        <ele>2153</ele>
        <time>2019-07-01T10:29:25Z</time>
      </trkpt>
      <trkpt lat="42.45991" lon="1.82435">
        <ele>2154</ele>
        <time>2019-07-01T10:29:35Z</time>
      </trkpt>
      <trkpt lat="42.4599" lon="1.82429">
        <ele>2154</ele>
        <time>2019-07-01T10:29:41Z</time>
      </trkpt>
      <trkpt lat="42.45989" lon="1.82418">
        <ele>2154</ele>
        <time>2019-07-01T10:29:51Z</time>
      </trkpt>
      <trkpt lat="42.45986" lon="1.82413">
        <ele>2156</ele>
        <time>2019-07-01T10:29:58Z</time>
      </trkpt>
      <trkpt lat="42.45981" lon="1.82395">
        <ele>2156</ele>
        <time>2019-07-01T10:30:13Z</time>
      </trkpt>
      <trkpt lat="42.45978" lon="1.8238">
        <ele>2156</ele>
        <time>2019-07-01T10:30:27Z</time>
      </trkpt>
      <trkpt lat="42.45977" lon="1.82374">
        <ele>2156</ele>
        <time>2019-07-01T10:30:32Z</time>
      </trkpt>
      <trkpt lat="42.45976" lon="1.82355">
        <ele>2157</ele>
        <time>2019-07-01T10:30:46Z</time>
      </trkpt>
      <trkpt lat="42.45975" lon="1.82349">
        <ele>2157</ele>
        <time>2019-07-01T10:30:51Z</time>
      </trkpt>
      <trkpt lat="42.45977" lon="1.82328">
        <ele>2158</ele>
        <time>2019-07-01T10:31:08Z</time>
      </trkpt>
      <trkpt lat="42.45978" lon="1.82318">
        <ele>2158</ele>
        <time>2019-07-01T10:31:16Z</time>
      </trkpt>
      <trkpt lat="42.45978" lon="1.8231">
        <ele>2158</ele>
        <time>2019-07-01T10:31:23Z</time>
      </trkpt>
      <trkpt lat="42.45978" lon="1.82304">
        <ele>2158</ele>
        <time>2019-07-01T10:31:28Z</time>
      </trkpt>
      <trkpt lat="42.45976" lon="1.82297">
        <ele>2159</ele>
        <time>2019-07-01T10:31:32Z</time>
      </trkpt>
      <trkpt lat="42.45978" lon="1.82282">
        <ele>2160</ele>
        <time>2019-07-01T10:31:43Z</time>
      </trkpt>
      <trkpt lat="42.45978" lon="1.82272">
        <ele>2161</ele>
        <time>2019-07-01T10:31:53Z</time>
      </trkpt>
      <trkpt lat="42.45982" lon="1.82264">
        <ele>2162</ele>
        <time>2019-07-01T10:32:03Z</time>
      </trkpt>
      <trkpt lat="42.45984" lon="1.82253">
        <ele>2163</ele>
        <time>2019-07-01T10:32:13Z</time>
      </trkpt>
      <trkpt lat="42.45984" lon="1.82245">
        <ele>2164</ele>
        <time>2019-07-01T10:32:21Z</time>
      </trkpt>
      <trkpt lat="42.45993" lon="1.82207">
        <ele>2168</ele>
        <time>2019-07-01T10:32:55Z</time>
      </trkpt>
      <trkpt lat="42.45994" lon="1.82192">
        <ele>2169</ele>
        <time>2019-07-01T10:33:07Z</time>
      </trkpt>
      <trkpt lat="42.45996" lon="1.82172">
        <ele>2170</ele>
        <time>2019-07-01T10:33:23Z</time>
      </trkpt>
      <trkpt lat="42.45997" lon="1.82164">
        <ele>2172</ele>
        <time>2019-07-01T10:33:31Z</time>
      </trkpt>
      <trkpt lat="42.45998" lon="1.82155">
        <ele>2172</ele>
        <time>2019-07-01T10:33:37Z</time>
      </trkpt>
      <trkpt lat="42.45998" lon="1.82147">
        <ele>2172</ele>
        <time>2019-07-01T10:33:43Z</time>
      </trkpt>
      <trkpt lat="42.46004" lon="1.82115">
        <ele>2174</ele>
        <time>2019-07-01T10:34:13Z</time>
      </trkpt>
      <trkpt lat="42.46004" lon="1.82104">
        <ele>2174</ele>
        <time>2019-07-01T10:34:24Z</time>
      </trkpt>
      <trkpt lat="42.46006" lon="1.82089">
        <ele>2175</ele>
        <time>2019-07-01T10:34:35Z</time>
      </trkpt>
      <trkpt lat="42.46006" lon="1.82073">
        <ele>2175</ele>
        <time>2019-07-01T10:34:48Z</time>
      </trkpt>
      <trkpt lat="42.46007" lon="1.82061">
        <ele>2174</ele>
        <time>2019-07-01T10:34:58Z</time>
      </trkpt>
      <trkpt lat="42.46007" lon="1.82054">
        <ele>2174</ele>
        <time>2019-07-01T10:35:03Z</time>
      </trkpt>
      <trkpt lat="42.46005" lon="1.82032">
        <ele>2173</ele>
        <time>2019-07-01T10:35:21Z</time>
      </trkpt>
      <trkpt lat="42.46007" lon="1.82022">
        <ele>2173</ele>
        <time>2019-07-01T10:35:29Z</time>
      </trkpt>
      <trkpt lat="42.46008" lon="1.82012">
        <ele>2173</ele>
        <time>2019-07-01T10:35:37Z</time>
      </trkpt>
      <trkpt lat="42.46007" lon="1.82003">
        <ele>2173</ele>
        <time>2019-07-01T10:35:45Z</time>
      </trkpt>
      <trkpt lat="42.46008" lon="1.81998">
        <ele>2173</ele>
        <time>2019-07-01T10:35:49Z</time>
      </trkpt>
      <trkpt lat="42.46007" lon="1.81989">
        <ele>2172</ele>
        <time>2019-07-01T10:35:58Z</time>
      </trkpt>
      <trkpt lat="42.46009" lon="1.81983">
        <ele>2173</ele>
        <time>2019-07-01T10:36:03Z</time>
      </trkpt>
      <trkpt lat="42.4601" lon="1.81976">
        <ele>2172</ele>
        <time>2019-07-01T10:36:10Z</time>
      </trkpt>
      <trkpt lat="42.46014" lon="1.8197">
        <ele>2172</ele>
        <time>2019-07-01T10:36:20Z</time>
      </trkpt>
      <trkpt lat="42.46014" lon="1.81961">
        <ele>2172</ele>
        <time>2019-07-01T10:36:30Z</time>
      </trkpt>
      <trkpt lat="42.46021" lon="1.81963">
        <ele>2172</ele>
        <time>2019-07-01T10:36:40Z</time>
      </trkpt>
      <trkpt lat="42.46017" lon="1.81952">
        <ele>2172</ele>
        <time>2019-07-01T10:37:54Z</time>
      </trkpt>
      <trkpt lat="42.46016" lon="1.81945">
        <ele>2172</ele>
        <time>2019-07-01T10:37:58Z</time>
      </trkpt>
      <trkpt lat="42.46016" lon="1.81939">
        <ele>2172</ele>
        <time>2019-07-01T10:38:03Z</time>
      </trkpt>
      <trkpt lat="42.46023" lon="1.81907">
        <ele>2172</ele>
        <time>2019-07-01T10:38:37Z</time>
      </trkpt>
      <trkpt lat="42.46026" lon="1.81902">
        <ele>2172</ele>
        <time>2019-07-01T10:38:42Z</time>
      </trkpt>
      <trkpt lat="42.46034" lon="1.81885">
        <ele>2172</ele>
        <time>2019-07-01T10:38:58Z</time>
      </trkpt>
      <trkpt lat="42.46037" lon="1.8188">
        <ele>2172</ele>
        <time>2019-07-01T10:39:03Z</time>
      </trkpt>
      <trkpt lat="42.46043" lon="1.81867">
        <ele>2171</ele>
        <time>2019-07-01T10:39:15Z</time>
      </trkpt>
      <trkpt lat="42.46046" lon="1.81861">
        <ele>2170</ele>
        <time>2019-07-01T10:39:20Z</time>
      </trkpt>
      <trkpt lat="42.46049" lon="1.81855">
        <ele>2170</ele>
        <time>2019-07-01T10:39:27Z</time>
      </trkpt>
      <trkpt lat="42.46052" lon="1.8185">
        <ele>2170</ele>
        <time>2019-07-01T10:39:32Z</time>
      </trkpt>
      <trkpt lat="42.46059" lon="1.81809">
        <ele>2167</ele>
        <time>2019-07-01T10:40:05Z</time>
      </trkpt>
      <trkpt lat="42.46061" lon="1.81803">
        <ele>2167</ele>
        <time>2019-07-01T10:40:09Z</time>
      </trkpt>
      <trkpt lat="42.46063" lon="1.81796">
        <ele>2167</ele>
        <time>2019-07-01T10:40:14Z</time>
      </trkpt>
      <trkpt lat="42.46064" lon="1.8179">
        <ele>2167</ele>
        <time>2019-07-01T10:40:19Z</time>
      </trkpt>
      <trkpt lat="42.46065" lon="1.81782">
        <ele>2166</ele>
        <time>2019-07-01T10:40:26Z</time>
      </trkpt>
      <trkpt lat="42.46065" lon="1.8177">
        <ele>2166</ele>
        <time>2019-07-01T10:40:36Z</time>
      </trkpt>
      <trkpt lat="42.46067" lon="1.81763">
        <ele>2166</ele>
        <time>2019-07-01T10:40:40Z</time>
      </trkpt>
      <trkpt lat="42.46073" lon="1.81738">
        <ele>2164</ele>
        <time>2019-07-01T10:40:59Z</time>
      </trkpt>
      <trkpt lat="42.46074" lon="1.81729">
        <ele>2164</ele>
        <time>2019-07-01T10:41:07Z</time>
      </trkpt>
      <trkpt lat="42.46076" lon="1.81721">
        <ele>2164</ele>
        <time>2019-07-01T10:41:14Z</time>
      </trkpt>
      <trkpt lat="42.46077" lon="1.81715">
        <ele>2164</ele>
        <time>2019-07-01T10:41:19Z</time>
      </trkpt>
      <trkpt lat="42.46082" lon="1.81693">
        <ele>2164</ele>
        <time>2019-07-01T10:41:36Z</time>
      </trkpt>
      <trkpt lat="42.46084" lon="1.81683">
        <ele>2164</ele>
        <time>2019-07-01T10:41:44Z</time>
      </trkpt>
      <trkpt lat="42.46088" lon="1.81668">
        <ele>2165</ele>
        <time>2019-07-01T10:41:55Z</time>
      </trkpt>
      <trkpt lat="42.46091" lon="1.81657">
        <ele>2164</ele>
        <time>2019-07-01T10:42:03Z</time>
      </trkpt>
      <trkpt lat="42.46095" lon="1.81652">
        <ele>2164</ele>
        <time>2019-07-01T10:42:07Z</time>
      </trkpt>
      <trkpt lat="42.46098" lon="1.81648">
        <ele>2165</ele>
        <time>2019-07-01T10:42:12Z</time>
      </trkpt>
      <trkpt lat="42.46102" lon="1.81646">
        <ele>2165</ele>
        <time>2019-07-01T10:42:16Z</time>
      </trkpt>
      <trkpt lat="42.46111" lon="1.81638">
        <ele>2164</ele>
        <time>2019-07-01T10:42:26Z</time>
      </trkpt>
      <trkpt lat="42.46115" lon="1.81635">
        <ele>2164</ele>
        <time>2019-07-01T10:42:30Z</time>
      </trkpt>
      <trkpt lat="42.46118" lon="1.81631">
        <ele>2164</ele>
        <time>2019-07-01T10:42:35Z</time>
      </trkpt>
      <trkpt lat="42.46126" lon="1.81626">
        <ele>2164</ele>
        <time>2019-07-01T10:42:58Z</time>
      </trkpt>
      <trkpt lat="42.46146" lon="1.81615">
        <ele>2164</ele>
        <time>2019-07-01T10:43:23Z</time>
      </trkpt>
      <trkpt lat="42.4615" lon="1.81615">
        <ele>2163</ele>
        <time>2019-07-01T10:43:26Z</time>
      </trkpt>
      <trkpt lat="42.46154" lon="1.81613">
        <ele>2163</ele>
        <time>2019-07-01T10:43:30Z</time>
      </trkpt>
      <trkpt lat="42.46164" lon="1.8161">
        <ele>2163</ele>
        <time>2019-07-01T10:43:40Z</time>
      </trkpt>
      <trkpt lat="42.46168" lon="1.81607">
        <ele>2163</ele>
        <time>2019-07-01T10:43:44Z</time>
      </trkpt>
      <trkpt lat="42.46183" lon="1.81599">
        <ele>2163</ele>
        <time>2019-07-01T10:44:01Z</time>
      </trkpt>
      <trkpt lat="42.46188" lon="1.81597">
        <ele>2163</ele>
        <time>2019-07-01T10:44:06Z</time>
      </trkpt>
      <trkpt lat="42.46195" lon="1.81594">
        <ele>2163</ele>
        <time>2019-07-01T10:44:15Z</time>
      </trkpt>
      <trkpt lat="42.46205" lon="1.81592">
        <ele>2163</ele>
        <time>2019-07-01T10:44:25Z</time>
      </trkpt>
      <trkpt lat="42.4621" lon="1.81592">
        <ele>2163</ele>
        <time>2019-07-01T10:44:29Z</time>
      </trkpt>
      <trkpt lat="42.46214" lon="1.81589">
        <ele>2163</ele>
        <time>2019-07-01T10:44:34Z</time>
      </trkpt>
      <trkpt lat="42.46235" lon="1.81579">
        <ele>2164</ele>
        <time>2019-07-01T10:44:58Z</time>
      </trkpt>
      <trkpt lat="42.4624" lon="1.81576">
        <ele>2164</ele>
        <time>2019-07-01T10:45:03Z</time>
      </trkpt>
      <trkpt lat="42.4625" lon="1.81566">
        <ele>2164</ele>
        <time>2019-07-01T10:45:16Z</time>
      </trkpt>
      <trkpt lat="42.46254" lon="1.81563">
        <ele>2165</ele>
        <time>2019-07-01T10:45:20Z</time>
      </trkpt>
      <trkpt lat="42.46259" lon="1.81561">
        <ele>2165</ele>
        <time>2019-07-01T10:45:27Z</time>
      </trkpt>
      <trkpt lat="42.46264" lon="1.81556">
        <ele>2165</ele>
        <time>2019-07-01T10:45:37Z</time>
      </trkpt>
      <trkpt lat="42.46271" lon="1.81554">
        <ele>2166</ele>
        <time>2019-07-01T10:45:47Z</time>
      </trkpt>
      <trkpt lat="42.46275" lon="1.81551">
        <ele>2166</ele>
        <time>2019-07-01T10:45:57Z</time>
      </trkpt>
      <trkpt lat="42.4628" lon="1.81548">
        <ele>2167</ele>
        <time>2019-07-01T10:46:07Z</time>
      </trkpt>
      <trkpt lat="42.46283" lon="1.81545">
        <ele>2167</ele>
        <time>2019-07-01T10:46:42Z</time>
      </trkpt>
      <trkpt lat="42.46287" lon="1.81543">
        <ele>2167</ele>
        <time>2019-07-01T10:46:47Z</time>
      </trkpt>
      <trkpt lat="42.46303" lon="1.81537">
        <ele>2168</ele>
        <time>2019-07-01T10:47:04Z</time>
      </trkpt>
      <trkpt lat="42.46339" lon="1.81525">
        <ele>2167</ele>
        <time>2019-07-01T10:47:32Z</time>
      </trkpt>
      <trkpt lat="42.46343" lon="1.81522">
        <ele>2167</ele>
        <time>2019-07-01T10:47:36Z</time>
      </trkpt>
      <trkpt lat="42.46344" lon="1.81517">
        <ele>2166</ele>
        <time>2019-07-01T10:47:43Z</time>
      </trkpt>
      <trkpt lat="42.4634" lon="1.8151">
        <ele>2166</ele>
        <time>2019-07-01T10:47:53Z</time>
      </trkpt>
      <trkpt lat="42.46344" lon="1.81506">
        <ele>2166</ele>
        <time>2019-07-01T10:47:58Z</time>
      </trkpt>
      <trkpt lat="42.46343" lon="1.81498">
        <ele>2166</ele>
        <time>2019-07-01T10:48:05Z</time>
      </trkpt>
      <trkpt lat="42.46342" lon="1.81491">
        <ele>2167</ele>
        <time>2019-07-01T10:48:12Z</time>
      </trkpt>
      <trkpt lat="42.46341" lon="1.81483">
        <ele>2167</ele>
        <time>2019-07-01T10:48:22Z</time>
      </trkpt>
      <trkpt lat="42.46338" lon="1.81477">
        <ele>2167</ele>
        <time>2019-07-01T10:48:38Z</time>
      </trkpt>
      <trkpt lat="42.46337" lon="1.8147">
        <ele>2168</ele>
        <time>2019-07-01T10:48:44Z</time>
      </trkpt>
      <trkpt lat="42.46336" lon="1.81463">
        <ele>2168</ele>
        <time>2019-07-01T10:48:53Z</time>
      </trkpt>
      <trkpt lat="42.46336" lon="1.81456">
        <ele>2168</ele>
        <time>2019-07-01T10:48:58Z</time>
      </trkpt>
      <trkpt lat="42.46334" lon="1.81451">
        <ele>2168</ele>
        <time>2019-07-01T10:49:03Z</time>
      </trkpt>
      <trkpt lat="42.46332" lon="1.81443">
        <ele>2169</ele>
        <time>2019-07-01T10:49:10Z</time>
      </trkpt>
      <trkpt lat="42.46333" lon="1.81435">
        <ele>2169</ele>
        <time>2019-07-01T10:49:17Z</time>
      </trkpt>
      <trkpt lat="42.46336" lon="1.8143">
        <ele>2169</ele>
        <time>2019-07-01T10:49:22Z</time>
      </trkpt>
      <trkpt lat="42.46338" lon="1.81425">
        <ele>2169</ele>
        <time>2019-07-01T10:49:26Z</time>
      </trkpt>
      <trkpt lat="42.46336" lon="1.81418">
        <ele>2170</ele>
        <time>2019-07-01T10:49:38Z</time>
      </trkpt>
      <trkpt lat="42.46343" lon="1.81415">
        <ele>2171</ele>
        <time>2019-07-01T10:49:49Z</time>
      </trkpt>
      <trkpt lat="42.46336" lon="1.8141">
        <ele>2171</ele>
        <time>2019-07-01T10:50:15Z</time>
      </trkpt>
      <trkpt lat="42.46333" lon="1.81405">
        <ele>2171</ele>
        <time>2019-07-01T10:50:19Z</time>
      </trkpt>
      <trkpt lat="42.46328" lon="1.81399">
        <ele>2171</ele>
        <time>2019-07-01T10:50:30Z</time>
      </trkpt>
      <trkpt lat="42.46334" lon="1.81394">
        <ele>2171</ele>
        <time>2019-07-01T10:50:40Z</time>
      </trkpt>
      <trkpt lat="42.4634" lon="1.81394">
        <ele>2172</ele>
        <time>2019-07-01T10:50:51Z</time>
      </trkpt>
      <trkpt lat="42.46345" lon="1.81385">
        <ele>2172</ele>
        <time>2019-07-01T10:51:02Z</time>
      </trkpt>
      <trkpt lat="42.46347" lon="1.81378">
        <ele>2173</ele>
        <time>2019-07-01T10:51:22Z</time>
      </trkpt>
      <trkpt lat="42.46347" lon="1.81376">
        <ele>2173</ele>
        <time>2019-07-01T11:05:28Z</time>
      </trkpt>
      <trkpt lat="42.46349" lon="1.81379">
        <ele>2174</ele>
        <time>2019-07-01T11:22:54Z</time>
      </trkpt>
      <trkpt lat="42.46343" lon="1.81379">
        <ele>2174</ele>
        <time>2019-07-01T11:28:35Z</time>
      </trkpt>
      <trkpt lat="42.46344" lon="1.81389">
        <ele>2173</ele>
        <time>2019-07-01T11:31:21Z</time>
      </trkpt>
      <trkpt lat="42.46341" lon="1.81396">
        <ele>2173</ele>
        <time>2019-07-01T11:31:37Z</time>
      </trkpt>
      <trkpt lat="42.46339" lon="1.81404">
        <ele>2173</ele>
        <time>2019-07-01T11:31:47Z</time>
      </trkpt>
      <trkpt lat="42.46335" lon="1.81407">
        <ele>2172</ele>
        <time>2019-07-01T11:31:52Z</time>
      </trkpt>
      <trkpt lat="42.46335" lon="1.81413">
        <ele>2171</ele>
        <time>2019-07-01T11:32:04Z</time>
      </trkpt>
      <trkpt lat="42.46338" lon="1.81424">
        <ele>2171</ele>
        <time>2019-07-01T11:32:14Z</time>
      </trkpt>
      <trkpt lat="42.46341" lon="1.81436">
        <ele>2170</ele>
        <time>2019-07-01T11:32:25Z</time>
      </trkpt>
      <trkpt lat="42.46342" lon="1.81443">
        <ele>2169</ele>
        <time>2019-07-01T11:32:45Z</time>
      </trkpt>
      <trkpt lat="42.46342" lon="1.8145">
        <ele>2169</ele>
        <time>2019-07-01T11:32:55Z</time>
      </trkpt>
      <trkpt lat="42.46345" lon="1.81459">
        <ele>2168</ele>
        <time>2019-07-01T11:33:05Z</time>
      </trkpt>
      <trkpt lat="42.46349" lon="1.8147">
        <ele>2168</ele>
        <time>2019-07-01T11:33:16Z</time>
      </trkpt>
      <trkpt lat="42.46355" lon="1.81489">
        <ele>2168</ele>
        <time>2019-07-01T11:33:33Z</time>
      </trkpt>
      <trkpt lat="42.46357" lon="1.81496">
        <ele>2167</ele>
        <time>2019-07-01T11:33:39Z</time>
      </trkpt>
      <trkpt lat="42.46355" lon="1.81503">
        <ele>2166</ele>
        <time>2019-07-01T11:33:52Z</time>
      </trkpt>
      <trkpt lat="42.46358" lon="1.8151">
        <ele>2166</ele>
        <time>2019-07-01T11:34:07Z</time>
      </trkpt>
      <trkpt lat="42.46361" lon="1.81516">
        <ele>2166</ele>
        <time>2019-07-01T11:34:14Z</time>
      </trkpt>
      <trkpt lat="42.46365" lon="1.81525">
        <ele>2166</ele>
        <time>2019-07-01T11:34:24Z</time>
      </trkpt>
      <trkpt lat="42.46365" lon="1.81535">
        <ele>2165</ele>
        <time>2019-07-01T11:34:34Z</time>
      </trkpt>
      <trkpt lat="42.46365" lon="1.81547">
        <ele>2165</ele>
        <time>2019-07-01T11:34:45Z</time>
      </trkpt>
      <trkpt lat="42.46362" lon="1.81561">
        <ele>2164</ele>
        <time>2019-07-01T11:34:57Z</time>
      </trkpt>
      <trkpt lat="42.46364" lon="1.81571">
        <ele>2164</ele>
        <time>2019-07-01T11:35:04Z</time>
      </trkpt>
      <trkpt lat="42.46363" lon="1.81576">
        <ele>2163</ele>
        <time>2019-07-01T11:36:12Z</time>
      </trkpt>
      <trkpt lat="42.46371" lon="1.81605">
        <ele>2163</ele>
        <time>2019-07-01T11:36:37Z</time>
      </trkpt>
      <trkpt lat="42.46371" lon="1.81613">
        <ele>2162</ele>
        <time>2019-07-01T11:36:44Z</time>
      </trkpt>
      <trkpt lat="42.46372" lon="1.81622">
        <ele>2162</ele>
        <time>2019-07-01T11:36:51Z</time>
      </trkpt>
      <trkpt lat="42.46374" lon="1.81654">
        <ele>2159</ele>
        <time>2019-07-01T11:37:21Z</time>
      </trkpt>
      <trkpt lat="42.46375" lon="1.8166">
        <ele>2159</ele>
        <time>2019-07-01T11:37:27Z</time>
      </trkpt>
      <trkpt lat="42.46378" lon="1.81665">
        <ele>2159</ele>
        <time>2019-07-01T11:37:34Z</time>
      </trkpt>
      <trkpt lat="42.46381" lon="1.81673">
        <ele>2158</ele>
        <time>2019-07-01T11:37:44Z</time>
      </trkpt>
      <trkpt lat="42.46385" lon="1.81697">
        <ele>2156</ele>
        <time>2019-07-01T11:38:06Z</time>
      </trkpt>
      <trkpt lat="42.46387" lon="1.81696">
        <ele>2154</ele>
        <time>2019-07-01T11:38:39Z</time>
      </trkpt>
      <trkpt lat="42.46388" lon="1.81694">
        <ele>2155</ele>
        <time>2019-07-01T11:39:34Z</time>
      </trkpt>
      <trkpt lat="42.4639" lon="1.81701">
        <ele>2155</ele>
        <time>2019-07-01T11:39:44Z</time>
      </trkpt>
      <trkpt lat="42.46388" lon="1.81706">
        <ele>2155</ele>
        <time>2019-07-01T11:39:56Z</time>
      </trkpt>
      <trkpt lat="42.46378" lon="1.81721">
        <ele>2154</ele>
        <time>2019-07-01T11:40:22Z</time>
      </trkpt>
      <trkpt lat="42.46374" lon="1.81725">
        <ele>2155</ele>
        <time>2019-07-01T11:40:26Z</time>
      </trkpt>
      <trkpt lat="42.46371" lon="1.81732">
        <ele>2155</ele>
        <time>2019-07-01T11:40:36Z</time>
      </trkpt>
      <trkpt lat="42.46372" lon="1.8174">
        <ele>2155</ele>
        <time>2019-07-01T11:40:43Z</time>
      </trkpt>
      <trkpt lat="42.46371" lon="1.81747">
        <ele>2155</ele>
        <time>2019-07-01T11:40:48Z</time>
      </trkpt>
      <trkpt lat="42.46367" lon="1.81766">
        <ele>2154</ele>
        <time>2019-07-01T11:41:02Z</time>
      </trkpt>
      <trkpt lat="42.46366" lon="1.8176">
        <ele>2153</ele>
        <time>2019-07-01T11:41:21Z</time>
      </trkpt>
      <trkpt lat="42.46367" lon="1.81754">
        <ele>2153</ele>
        <time>2019-07-01T11:41:26Z</time>
      </trkpt>
      <trkpt lat="42.46368" lon="1.81737">
        <ele>2154</ele>
        <time>2019-07-01T11:41:40Z</time>
      </trkpt>
      <trkpt lat="42.46367" lon="1.8173">
        <ele>2155</ele>
        <time>2019-07-01T11:41:46Z</time>
      </trkpt>
      <trkpt lat="42.46367" lon="1.81724">
        <ele>2155</ele>
        <time>2019-07-01T11:41:50Z</time>
      </trkpt>
      <trkpt lat="42.46366" lon="1.81676">
        <ele>2157</ele>
        <time>2019-07-01T11:42:23Z</time>
      </trkpt>
      <trkpt lat="42.46367" lon="1.81668">
        <ele>2158</ele>
        <time>2019-07-01T11:42:29Z</time>
      </trkpt>
      <trkpt lat="42.46367" lon="1.81661">
        <ele>2157</ele>
        <time>2019-07-01T11:42:34Z</time>
      </trkpt>
      <trkpt lat="42.46366" lon="1.81655">
        <ele>2158</ele>
        <time>2019-07-01T11:42:38Z</time>
      </trkpt>
      <trkpt lat="42.46366" lon="1.81649">
        <ele>2159</ele>
        <time>2019-07-01T11:42:42Z</time>
      </trkpt>
      <trkpt lat="42.46366" lon="1.81641">
        <ele>2159</ele>
        <time>2019-07-01T11:42:49Z</time>
      </trkpt>
      <trkpt lat="42.46364" lon="1.81599">
        <ele>2163</ele>
        <time>2019-07-01T11:43:21Z</time>
      </trkpt>
      <trkpt lat="42.46355" lon="1.81557">
        <ele>2165</ele>
        <time>2019-07-01T11:43:51Z</time>
      </trkpt>
      <trkpt lat="42.46354" lon="1.81552">
        <ele>2165</ele>
        <time>2019-07-01T11:43:55Z</time>
      </trkpt>
      <trkpt lat="42.46352" lon="1.81546">
        <ele>2165</ele>
        <time>2019-07-01T11:43:59Z</time>
      </trkpt>
      <trkpt lat="42.4635" lon="1.8154">
        <ele>2164</ele>
        <time>2019-07-01T11:44:03Z</time>
      </trkpt>
      <trkpt lat="42.46342" lon="1.81507">
        <ele>2166</ele>
        <time>2019-07-01T11:44:29Z</time>
      </trkpt>
      <trkpt lat="42.4634" lon="1.81492">
        <ele>2166</ele>
        <time>2019-07-01T11:44:41Z</time>
      </trkpt>
      <trkpt lat="42.46337" lon="1.81481">
        <ele>2167</ele>
        <time>2019-07-01T11:44:49Z</time>
      </trkpt>
      <trkpt lat="42.46335" lon="1.81475">
        <ele>2167</ele>
        <time>2019-07-01T11:44:53Z</time>
      </trkpt>
      <trkpt lat="42.46334" lon="1.81469">
        <ele>2167</ele>
        <time>2019-07-01T11:44:57Z</time>
      </trkpt>
      <trkpt lat="42.46331" lon="1.81457">
        <ele>2168</ele>
        <time>2019-07-01T11:45:05Z</time>
      </trkpt>
      <trkpt lat="42.4633" lon="1.8145">
        <ele>2167</ele>
        <time>2019-07-01T11:45:10Z</time>
      </trkpt>
      <trkpt lat="42.4633" lon="1.81442">
        <ele>2168</ele>
        <time>2019-07-01T11:45:16Z</time>
      </trkpt>
      <trkpt lat="42.46327" lon="1.81424">
        <ele>2170</ele>
        <time>2019-07-01T11:45:36Z</time>
      </trkpt>
      <trkpt lat="42.46327" lon="1.81418">
        <ele>2171</ele>
        <time>2019-07-01T11:45:39Z</time>
      </trkpt>
      <trkpt lat="42.46327" lon="1.81413">
        <ele>2170</ele>
        <time>2019-07-01T11:45:42Z</time>
      </trkpt>
      <trkpt lat="42.46329" lon="1.81406">
        <ele>2171</ele>
        <time>2019-07-01T11:45:46Z</time>
      </trkpt>
      <trkpt lat="42.46332" lon="1.81401">
        <ele>2171</ele>
        <time>2019-07-01T11:45:50Z</time>
      </trkpt>
      <trkpt lat="42.46341" lon="1.81398">
        <ele>2173</ele>
        <time>2019-07-01T11:45:59Z</time>
      </trkpt>
      <trkpt lat="42.46348" lon="1.81396">
        <ele>2173</ele>
        <time>2019-07-01T11:46:08Z</time>
      </trkpt>
      <trkpt lat="42.46343" lon="1.81391">
        <ele>2173</ele>
        <time>2019-07-01T11:46:17Z</time>
      </trkpt>
      <trkpt lat="42.4634" lon="1.81393">
        <ele>2173</ele>
        <time>2019-07-01T11:46:51Z</time>
      </trkpt>
      <trkpt lat="42.46332" lon="1.81397">
        <ele>2173</ele>
        <time>2019-07-01T11:47:01Z</time>
      </trkpt>
      <trkpt lat="42.46328" lon="1.81402">
        <ele>2172</ele>
        <time>2019-07-01T11:47:07Z</time>
      </trkpt>
      <trkpt lat="42.46328" lon="1.81407">
        <ele>2172</ele>
        <time>2019-07-01T11:47:11Z</time>
      </trkpt>
      <trkpt lat="42.46327" lon="1.81419">
        <ele>2171</ele>
        <time>2019-07-01T11:47:21Z</time>
      </trkpt>
      <trkpt lat="42.46331" lon="1.81432">
        <ele>2171</ele>
        <time>2019-07-01T11:47:31Z</time>
      </trkpt>
      <trkpt lat="42.46332" lon="1.81438">
        <ele>2170</ele>
        <time>2019-07-01T11:47:35Z</time>
      </trkpt>
      <trkpt lat="42.46333" lon="1.81444">
        <ele>2170</ele>
        <time>2019-07-01T11:47:40Z</time>
      </trkpt>
      <trkpt lat="42.46337" lon="1.81456">
        <ele>2169</ele>
        <time>2019-07-01T11:47:49Z</time>
      </trkpt>
      <trkpt lat="42.46347" lon="1.81502">
        <ele>2167</ele>
        <time>2019-07-01T11:48:20Z</time>
      </trkpt>
      <trkpt lat="42.46358" lon="1.81545">
        <ele>2165</ele>
        <time>2019-07-01T11:48:50Z</time>
      </trkpt>
      <trkpt lat="42.4636" lon="1.81551">
        <ele>2164</ele>
        <time>2019-07-01T11:48:54Z</time>
      </trkpt>
      <trkpt lat="42.46369" lon="1.81596">
        <ele>2163</ele>
        <time>2019-07-01T11:49:51Z</time>
      </trkpt>
      <trkpt lat="42.4637" lon="1.81603">
        <ele>2162</ele>
        <time>2019-07-01T11:49:56Z</time>
      </trkpt>
      <trkpt lat="42.46374" lon="1.81623">
        <ele>2161</ele>
        <time>2019-07-01T11:50:10Z</time>
      </trkpt>
      <trkpt lat="42.46374" lon="1.81665">
        <ele>2158</ele>
        <time>2019-07-01T11:50:39Z</time>
      </trkpt>
      <trkpt lat="42.46373" lon="1.81671">
        <ele>2158</ele>
        <time>2019-07-01T11:50:43Z</time>
      </trkpt>
      <trkpt lat="42.46373" lon="1.81678">
        <ele>2158</ele>
        <time>2019-07-01T11:50:48Z</time>
      </trkpt>
      <trkpt lat="42.46373" lon="1.81685">
        <ele>2157</ele>
        <time>2019-07-01T11:50:59Z</time>
      </trkpt>
      <trkpt lat="42.46374" lon="1.81695">
        <ele>2156</ele>
        <time>2019-07-01T11:51:59Z</time>
      </trkpt>
      <trkpt lat="42.46371" lon="1.81735">
        <ele>2154</ele>
        <time>2019-07-01T11:52:34Z</time>
      </trkpt>
      <trkpt lat="42.46369" lon="1.81749">
        <ele>2153</ele>
        <time>2019-07-01T11:52:43Z</time>
      </trkpt>
      <trkpt lat="42.46364" lon="1.81774">
        <ele>2151</ele>
        <time>2019-07-01T11:53:02Z</time>
      </trkpt>
      <trkpt lat="42.46364" lon="1.8178">
        <ele>2151</ele>
        <time>2019-07-01T11:53:06Z</time>
      </trkpt>
      <trkpt lat="42.46363" lon="1.81786">
        <ele>2150</ele>
        <time>2019-07-01T11:53:10Z</time>
      </trkpt>
      <trkpt lat="42.46358" lon="1.818">
        <ele>2150</ele>
        <time>2019-07-01T11:53:22Z</time>
      </trkpt>
      <trkpt lat="42.46351" lon="1.81811">
        <ele>2149</ele>
        <time>2019-07-01T11:53:32Z</time>
      </trkpt>
      <trkpt lat="42.46347" lon="1.81816">
        <ele>2149</ele>
        <time>2019-07-01T11:53:37Z</time>
      </trkpt>
      <trkpt lat="42.46337" lon="1.81842">
        <ele>2147</ele>
        <time>2019-07-01T11:53:55Z</time>
      </trkpt>
      <trkpt lat="42.46332" lon="1.81846">
        <ele>2147</ele>
        <time>2019-07-01T11:54:00Z</time>
      </trkpt>
      <trkpt lat="42.46328" lon="1.81851">
        <ele>2146</ele>
        <time>2019-07-01T11:54:06Z</time>
      </trkpt>
      <trkpt lat="42.4632" lon="1.81862">
        <ele>2145</ele>
        <time>2019-07-01T11:54:16Z</time>
      </trkpt>
      <trkpt lat="42.46316" lon="1.81869">
        <ele>2145</ele>
        <time>2019-07-01T11:54:24Z</time>
      </trkpt>
      <trkpt lat="42.46316" lon="1.81876">
        <ele>2145</ele>
        <time>2019-07-01T11:54:36Z</time>
      </trkpt>
      <trkpt lat="42.46311" lon="1.81882">
        <ele>2144</ele>
        <time>2019-07-01T11:54:46Z</time>
      </trkpt>
      <trkpt lat="42.4631" lon="1.81889">
        <ele>2144</ele>
        <time>2019-07-01T11:54:53Z</time>
      </trkpt>
      <trkpt lat="42.4631" lon="1.81904">
        <ele>2143</ele>
        <time>2019-07-01T11:55:03Z</time>
      </trkpt>
      <trkpt lat="42.4631" lon="1.81912">
        <ele>2143</ele>
        <time>2019-07-01T11:55:07Z</time>
      </trkpt>
      <trkpt lat="42.4631" lon="1.81926">
        <ele>2142</ele>
        <time>2019-07-01T11:55:17Z</time>
      </trkpt>
      <trkpt lat="42.46314" lon="1.81942">
        <ele>2141</ele>
        <time>2019-07-01T11:55:28Z</time>
      </trkpt>
      <trkpt lat="42.46318" lon="1.81949">
        <ele>2141</ele>
        <time>2019-07-01T11:55:32Z</time>
      </trkpt>
      <trkpt lat="42.46321" lon="1.81956">
        <ele>2141</ele>
        <time>2019-07-01T11:55:37Z</time>
      </trkpt>
      <trkpt lat="42.4633" lon="1.81978">
        <ele>2139</ele>
        <time>2019-07-01T11:55:54Z</time>
      </trkpt>
      <trkpt lat="42.46332" lon="1.81986">
        <ele>2138</ele>
        <time>2019-07-01T11:56:00Z</time>
      </trkpt>
      <trkpt lat="42.46333" lon="1.81995">
        <ele>2138</ele>
        <time>2019-07-01T11:56:06Z</time>
      </trkpt>
      <trkpt lat="42.46333" lon="1.82006">
        <ele>2138</ele>
        <time>2019-07-01T11:56:14Z</time>
      </trkpt>
      <trkpt lat="42.4634" lon="1.82052">
        <ele>2134</ele>
        <time>2019-07-01T11:56:44Z</time>
      </trkpt>
      <trkpt lat="42.46342" lon="1.8206">
        <ele>2134</ele>
        <time>2019-07-01T11:56:49Z</time>
      </trkpt>
      <trkpt lat="42.46345" lon="1.82077">
        <ele>2133</ele>
        <time>2019-07-01T11:57:00Z</time>
      </trkpt>
      <trkpt lat="42.46348" lon="1.82086">
        <ele>2133</ele>
        <time>2019-07-01T11:57:05Z</time>
      </trkpt>
      <trkpt lat="42.46349" lon="1.82104">
        <ele>2131</ele>
        <time>2019-07-01T11:57:17Z</time>
      </trkpt>
      <trkpt lat="42.46353" lon="1.8212">
        <ele>2131</ele>
        <time>2019-07-01T11:57:28Z</time>
      </trkpt>
      <trkpt lat="42.46353" lon="1.82129">
        <ele>2130</ele>
        <time>2019-07-01T11:57:33Z</time>
      </trkpt>
      <trkpt lat="42.46364" lon="1.82176">
        <ele>2127</ele>
        <time>2019-07-01T11:58:06Z</time>
      </trkpt>
      <trkpt lat="42.46375" lon="1.8223">
        <ele>2124</ele>
        <time>2019-07-01T11:58:41Z</time>
      </trkpt>
      <trkpt lat="42.46386" lon="1.82261">
        <ele>2123</ele>
        <time>2019-07-01T11:58:59Z</time>
      </trkpt>
      <trkpt lat="42.4639" lon="1.82266">
        <ele>2122</ele>
        <time>2019-07-01T11:59:03Z</time>
      </trkpt>
      <trkpt lat="42.46401" lon="1.82312">
        <ele>2119</ele>
        <time>2019-07-01T11:59:35Z</time>
      </trkpt>
      <trkpt lat="42.46402" lon="1.82321">
        <ele>2118</ele>
        <time>2019-07-01T11:59:41Z</time>
      </trkpt>
      <trkpt lat="42.46403" lon="1.8233">
        <ele>2118</ele>
        <time>2019-07-01T11:59:47Z</time>
      </trkpt>
      <trkpt lat="42.46405" lon="1.82338">
        <ele>2118</ele>
        <time>2019-07-01T11:59:53Z</time>
      </trkpt>
      <trkpt lat="42.46407" lon="1.82348">
        <ele>2116</ele>
        <time>2019-07-01T12:00:01Z</time>
      </trkpt>
      <trkpt lat="42.46411" lon="1.82365">
        <ele>2116</ele>
        <time>2019-07-01T12:00:12Z</time>
      </trkpt>
      <trkpt lat="42.46413" lon="1.82372">
        <ele>2115</ele>
        <time>2019-07-01T12:00:17Z</time>
      </trkpt>
      <trkpt lat="42.46413" lon="1.8238">
        <ele>2114</ele>
        <time>2019-07-01T12:00:23Z</time>
      </trkpt>
      <trkpt lat="42.46415" lon="1.82388">
        <ele>2113</ele>
        <time>2019-07-01T12:00:28Z</time>
      </trkpt>
      <trkpt lat="42.46421" lon="1.82404">
        <ele>2112</ele>
        <time>2019-07-01T12:00:38Z</time>
      </trkpt>
      <trkpt lat="42.46422" lon="1.82411">
        <ele>2112</ele>
        <time>2019-07-01T12:00:43Z</time>
      </trkpt>
      <trkpt lat="42.46442" lon="1.82461">
        <ele>2108</ele>
        <time>2019-07-01T12:01:17Z</time>
      </trkpt>
      <trkpt lat="42.46446" lon="1.82469">
        <ele>2108</ele>
        <time>2019-07-01T12:01:23Z</time>
      </trkpt>
      <trkpt lat="42.46456" lon="1.82484">
        <ele>2107</ele>
        <time>2019-07-01T12:01:36Z</time>
      </trkpt>
      <trkpt lat="42.46476" lon="1.82527">
        <ele>2104</ele>
        <time>2019-07-01T12:02:09Z</time>
      </trkpt>
      <trkpt lat="42.46483" lon="1.82543">
        <ele>2102</ele>
        <time>2019-07-01T12:02:21Z</time>
      </trkpt>
      <trkpt lat="42.46494" lon="1.82563">
        <ele>2100</ele>
        <time>2019-07-01T12:02:37Z</time>
      </trkpt>
      <trkpt lat="42.46496" lon="1.82572">
        <ele>2099</ele>
        <time>2019-07-01T12:02:43Z</time>
      </trkpt>
      <trkpt lat="42.46498" lon="1.82582">
        <ele>2099</ele>
        <time>2019-07-01T12:02:51Z</time>
      </trkpt>
      <trkpt lat="42.46501" lon="1.82603">
        <ele>2097</ele>
        <time>2019-07-01T12:03:05Z</time>
      </trkpt>
      <trkpt lat="42.465" lon="1.82613">
        <ele>2097</ele>
        <time>2019-07-01T12:03:11Z</time>
      </trkpt>
      <trkpt lat="42.46499" lon="1.82622">
        <ele>2096</ele>
        <time>2019-07-01T12:03:16Z</time>
      </trkpt>
      <trkpt lat="42.46496" lon="1.82629">
        <ele>2095</ele>
        <time>2019-07-01T12:03:22Z</time>
      </trkpt>
      <trkpt lat="42.46494" lon="1.82658">
        <ele>2094</ele>
        <time>2019-07-01T12:03:42Z</time>
      </trkpt>
      <trkpt lat="42.46491" lon="1.82666">
        <ele>2093</ele>
        <time>2019-07-01T12:03:46Z</time>
      </trkpt>
      <trkpt lat="42.46492" lon="1.82675">
        <ele>2092</ele>
        <time>2019-07-01T12:03:52Z</time>
      </trkpt>
      <trkpt lat="42.4649" lon="1.82685">
        <ele>2091</ele>
        <time>2019-07-01T12:03:58Z</time>
      </trkpt>
      <trkpt lat="42.46488" lon="1.82693">
        <ele>2091</ele>
        <time>2019-07-01T12:04:03Z</time>
      </trkpt>
      <trkpt lat="42.46487" lon="1.82701">
        <ele>2092</ele>
        <time>2019-07-01T12:04:09Z</time>
      </trkpt>
      <trkpt lat="42.46484" lon="1.82715">
        <ele>2090</ele>
        <time>2019-07-01T12:04:23Z</time>
      </trkpt>
      <trkpt lat="42.4648" lon="1.82724">
        <ele>2089</ele>
        <time>2019-07-01T12:04:29Z</time>
      </trkpt>
      <trkpt lat="42.4648" lon="1.82733">
        <ele>2089</ele>
        <time>2019-07-01T12:04:36Z</time>
      </trkpt>
      <trkpt lat="42.46462" lon="1.82782">
        <ele>2086</ele>
        <time>2019-07-01T12:05:07Z</time>
      </trkpt>
      <trkpt lat="42.46446" lon="1.82821">
        <ele>2084</ele>
        <time>2019-07-01T12:05:33Z</time>
      </trkpt>
      <trkpt lat="42.46445" lon="1.82829">
        <ele>2083</ele>
        <time>2019-07-01T12:05:38Z</time>
      </trkpt>
      <trkpt lat="42.46443" lon="1.82837">
        <ele>2083</ele>
        <time>2019-07-01T12:05:43Z</time>
      </trkpt>
      <trkpt lat="42.46442" lon="1.82844">
        <ele>2083</ele>
        <time>2019-07-01T12:05:48Z</time>
      </trkpt>
      <trkpt lat="42.46442" lon="1.82851">
        <ele>2082</ele>
        <time>2019-07-01T12:05:53Z</time>
      </trkpt>
      <trkpt lat="42.46445" lon="1.82857">
        <ele>2082</ele>
        <time>2019-07-01T12:05:58Z</time>
      </trkpt>
      <trkpt lat="42.46449" lon="1.82863">
        <ele>2081</ele>
        <time>2019-07-01T12:06:03Z</time>
      </trkpt>
      <trkpt lat="42.46458" lon="1.82861">
        <ele>2080</ele>
        <time>2019-07-01T12:06:13Z</time>
      </trkpt>
      <trkpt lat="42.46469" lon="1.82844">
        <ele>2079</ele>
        <time>2019-07-01T12:06:31Z</time>
      </trkpt>
      <trkpt lat="42.46474" lon="1.82839">
        <ele>2078</ele>
        <time>2019-07-01T12:06:38Z</time>
      </trkpt>
      <trkpt lat="42.46479" lon="1.82836">
        <ele>2078</ele>
        <time>2019-07-01T12:06:43Z</time>
      </trkpt>
      <trkpt lat="42.46487" lon="1.82825">
        <ele>2077</ele>
        <time>2019-07-01T12:06:55Z</time>
      </trkpt>
      <trkpt lat="42.465" lon="1.82818">
        <ele>2076</ele>
        <time>2019-07-01T12:07:09Z</time>
      </trkpt>
      <trkpt lat="42.46511" lon="1.82812">
        <ele>2075</ele>
        <time>2019-07-01T12:07:19Z</time>
      </trkpt>
      <trkpt lat="42.46521" lon="1.82803">
        <ele>2074</ele>
        <time>2019-07-01T12:07:30Z</time>
      </trkpt>
      <trkpt lat="42.46538" lon="1.82802">
        <ele>2074</ele>
        <time>2019-07-01T12:07:45Z</time>
      </trkpt>
      <trkpt lat="42.46544" lon="1.82802">
        <ele>2073</ele>
        <time>2019-07-01T12:08:06Z</time>
      </trkpt>
      <trkpt lat="42.46549" lon="1.82799">
        <ele>2073</ele>
        <time>2019-07-01T12:08:19Z</time>
      </trkpt>
      <trkpt lat="42.46552" lon="1.82785">
        <ele>2073</ele>
        <time>2019-07-01T12:08:36Z</time>
      </trkpt>
      <trkpt lat="42.46557" lon="1.82786">
        <ele>2073</ele>
        <time>2019-07-01T12:08:46Z</time>
      </trkpt>
      <trkpt lat="42.46555" lon="1.82794">
        <ele>2072</ele>
        <time>2019-07-01T12:10:42Z</time>
      </trkpt>
      <trkpt lat="42.46561" lon="1.82792">
        <ele>2072</ele>
        <time>2019-07-01T12:11:03Z</time>
      </trkpt>
      <trkpt lat="42.46596" lon="1.82769">
        <ele>2069</ele>
        <time>2019-07-01T12:11:35Z</time>
      </trkpt>
      <trkpt lat="42.46603" lon="1.82767">
        <ele>2068</ele>
        <time>2019-07-01T12:11:41Z</time>
      </trkpt>
      <trkpt lat="42.46638" lon="1.8274">
        <ele>2065</ele>
        <time>2019-07-01T12:12:14Z</time>
      </trkpt>
      <trkpt lat="42.46672" lon="1.82714">
        <ele>2062</ele>
        <time>2019-07-01T12:12:47Z</time>
      </trkpt>
      <trkpt lat="42.46681" lon="1.82705">
        <ele>2062</ele>
        <time>2019-07-01T12:12:58Z</time>
      </trkpt>
      <trkpt lat="42.46686" lon="1.82699">
        <ele>2061</ele>
        <time>2019-07-01T12:13:04Z</time>
      </trkpt>
      <trkpt lat="42.46692" lon="1.82699">
        <ele>2060</ele>
        <time>2019-07-01T12:13:10Z</time>
      </trkpt>
      <trkpt lat="42.467" lon="1.82685">
        <ele>2059</ele>
        <time>2019-07-01T12:13:22Z</time>
      </trkpt>
      <trkpt lat="42.46706" lon="1.82681">
        <ele>2058</ele>
        <time>2019-07-01T12:13:27Z</time>
      </trkpt>
      <trkpt lat="42.46718" lon="1.82683">
        <ele>2058</ele>
        <time>2019-07-01T12:13:36Z</time>
      </trkpt>
      <trkpt lat="42.46723" lon="1.82688">
        <ele>2058</ele>
        <time>2019-07-01T12:13:40Z</time>
      </trkpt>
      <trkpt lat="42.46724" lon="1.82696">
        <ele>2057</ele>
        <time>2019-07-01T12:13:45Z</time>
      </trkpt>
      <trkpt lat="42.46723" lon="1.82704">
        <ele>2056</ele>
        <time>2019-07-01T12:13:56Z</time>
      </trkpt>
      <trkpt lat="42.46723" lon="1.82712">
        <ele>2055</ele>
        <time>2019-07-01T12:14:32Z</time>
      </trkpt>
      <trkpt lat="42.4672" lon="1.8272">
        <ele>2054</ele>
        <time>2019-07-01T12:14:39Z</time>
      </trkpt>
      <trkpt lat="42.46712" lon="1.82735">
        <ele>2053</ele>
        <time>2019-07-01T12:14:54Z</time>
      </trkpt>
      <trkpt lat="42.46701" lon="1.82757">
        <ele>2051</ele>
        <time>2019-07-01T12:15:09Z</time>
      </trkpt>
      <trkpt lat="42.46697" lon="1.82763">
        <ele>2051</ele>
        <time>2019-07-01T12:15:14Z</time>
      </trkpt>
      <trkpt lat="42.46693" lon="1.82771">
        <ele>2051</ele>
        <time>2019-07-01T12:15:19Z</time>
      </trkpt>
      <trkpt lat="42.46688" lon="1.82776">
        <ele>2050</ele>
        <time>2019-07-01T12:15:25Z</time>
      </trkpt>
      <trkpt lat="42.46685" lon="1.82785">
        <ele>2049</ele>
        <time>2019-07-01T12:15:31Z</time>
      </trkpt>
      <trkpt lat="42.46682" lon="1.8279">
        <ele>2049</ele>
        <time>2019-07-01T12:15:49Z</time>
      </trkpt>
      <trkpt lat="42.46676" lon="1.82803">
        <ele>2048</ele>
        <time>2019-07-01T12:16:00Z</time>
      </trkpt>
      <trkpt lat="42.46672" lon="1.8281">
        <ele>2047</ele>
        <time>2019-07-01T12:16:06Z</time>
      </trkpt>
      <trkpt lat="42.46668" lon="1.82818">
        <ele>2047</ele>
        <time>2019-07-01T12:16:11Z</time>
      </trkpt>
      <trkpt lat="42.46665" lon="1.82827">
        <ele>2047</ele>
        <time>2019-07-01T12:16:19Z</time>
      </trkpt>
      <trkpt lat="42.46647" lon="1.82853">
        <ele>2044</ele>
        <time>2019-07-01T12:16:43Z</time>
      </trkpt>
      <trkpt lat="42.46638" lon="1.82892">
        <ele>2042</ele>
        <time>2019-07-01T12:17:08Z</time>
      </trkpt>
      <trkpt lat="42.46633" lon="1.82906">
        <ele>2041</ele>
        <time>2019-07-01T12:17:18Z</time>
      </trkpt>
      <trkpt lat="42.46634" lon="1.82916">
        <ele>2040</ele>
        <time>2019-07-01T12:17:25Z</time>
      </trkpt>
      <trkpt lat="42.46631" lon="1.82939">
        <ele>2038</ele>
        <time>2019-07-01T12:17:39Z</time>
      </trkpt>
      <trkpt lat="42.46634" lon="1.82958">
        <ele>2038</ele>
        <time>2019-07-01T12:17:52Z</time>
      </trkpt>
      <trkpt lat="42.46636" lon="1.82968">
        <ele>2036</ele>
        <time>2019-07-01T12:18:01Z</time>
      </trkpt>
      <trkpt lat="42.46633" lon="1.82975">
        <ele>2035</ele>
        <time>2019-07-01T12:18:09Z</time>
      </trkpt>
      <trkpt lat="42.46629" lon="1.82997">
        <ele>2034</ele>
        <time>2019-07-01T12:18:24Z</time>
      </trkpt>
      <trkpt lat="42.46625" lon="1.83003">
        <ele>2034</ele>
        <time>2019-07-01T12:18:28Z</time>
      </trkpt>
      <trkpt lat="42.46622" lon="1.83015">
        <ele>2033</ele>
        <time>2019-07-01T12:18:36Z</time>
      </trkpt>
      <trkpt lat="42.46619" lon="1.83021">
        <ele>2032</ele>
        <time>2019-07-01T12:18:41Z</time>
      </trkpt>
      <trkpt lat="42.46618" lon="1.83028">
        <ele>2033</ele>
        <time>2019-07-01T12:18:45Z</time>
      </trkpt>
      <trkpt lat="42.46615" lon="1.83035">
        <ele>2032</ele>
        <time>2019-07-01T12:18:49Z</time>
      </trkpt>
      <trkpt lat="42.46607" lon="1.83058">
        <ele>2030</ele>
        <time>2019-07-01T12:19:04Z</time>
      </trkpt>
      <trkpt lat="42.46599" lon="1.83074">
        <ele>2029</ele>
        <time>2019-07-01T12:19:17Z</time>
      </trkpt>
      <trkpt lat="42.46587" lon="1.83122">
        <ele>2025</ele>
        <time>2019-07-01T12:19:52Z</time>
      </trkpt>
      <trkpt lat="42.46584" lon="1.8313">
        <ele>2024</ele>
        <time>2019-07-01T12:19:57Z</time>
      </trkpt>
      <trkpt lat="42.46582" lon="1.83138">
        <ele>2024</ele>
        <time>2019-07-01T12:20:01Z</time>
      </trkpt>
      <trkpt lat="42.46578" lon="1.83146">
        <ele>2023</ele>
        <time>2019-07-01T12:20:06Z</time>
      </trkpt>
      <trkpt lat="42.46577" lon="1.83156">
        <ele>2023</ele>
        <time>2019-07-01T12:20:13Z</time>
      </trkpt>
      <trkpt lat="42.46574" lon="1.83164">
        <ele>2023</ele>
        <time>2019-07-01T12:20:18Z</time>
      </trkpt>
      <trkpt lat="42.4657" lon="1.83172">
        <ele>2022</ele>
        <time>2019-07-01T12:20:24Z</time>
      </trkpt>
      <trkpt lat="42.4657" lon="1.83189">
        <ele>2020</ele>
        <time>2019-07-01T12:20:37Z</time>
      </trkpt>
      <trkpt lat="42.46571" lon="1.83203">
        <ele>2020</ele>
        <time>2019-07-01T12:20:49Z</time>
      </trkpt>
      <trkpt lat="42.46572" lon="1.83212">
        <ele>2018</ele>
        <time>2019-07-01T12:20:58Z</time>
      </trkpt>
      <trkpt lat="42.4657" lon="1.8322">
        <ele>2018</ele>
        <time>2019-07-01T12:21:02Z</time>
      </trkpt>
      <trkpt lat="42.46565" lon="1.83234">
        <ele>2017</ele>
        <time>2019-07-01T12:21:15Z</time>
      </trkpt>
      <trkpt lat="42.46564" lon="1.83264">
        <ele>2015</ele>
        <time>2019-07-01T12:21:33Z</time>
      </trkpt>
      <trkpt lat="42.46563" lon="1.83271">
        <ele>2015</ele>
        <time>2019-07-01T12:21:37Z</time>
      </trkpt>
      <trkpt lat="42.46558" lon="1.83282">
        <ele>2014</ele>
        <time>2019-07-01T12:21:45Z</time>
      </trkpt>
      <trkpt lat="42.46559" lon="1.83289">
        <ele>2014</ele>
        <time>2019-07-01T12:21:49Z</time>
      </trkpt>
      <trkpt lat="42.46559" lon="1.83323">
        <ele>2011</ele>
        <time>2019-07-01T12:22:09Z</time>
      </trkpt>
      <trkpt lat="42.4656" lon="1.8333">
        <ele>2011</ele>
        <time>2019-07-01T12:22:13Z</time>
      </trkpt>
      <trkpt lat="42.46561" lon="1.83337">
        <ele>2010</ele>
        <time>2019-07-01T12:22:17Z</time>
      </trkpt>
      <trkpt lat="42.46561" lon="1.8335">
        <ele>2009</ele>
        <time>2019-07-01T12:22:25Z</time>
      </trkpt>
      <trkpt lat="42.46565" lon="1.83356">
        <ele>2008</ele>
        <time>2019-07-01T12:22:39Z</time>
      </trkpt>
      <trkpt lat="42.46566" lon="1.83354">
        <ele>2008</ele>
        <time>2019-07-01T12:23:16Z</time>
      </trkpt>
      <trkpt lat="42.46571" lon="1.83346">
        <ele>2007</ele>
        <time>2019-07-01T12:24:02Z</time>
      </trkpt>
      <trkpt lat="42.46576" lon="1.83339">
        <ele>2006</ele>
        <time>2019-07-01T12:24:08Z</time>
      </trkpt>
      <trkpt lat="42.46583" lon="1.83325">
        <ele>2006</ele>
        <time>2019-07-01T12:24:18Z</time>
      </trkpt>
      <trkpt lat="42.46586" lon="1.83317">
        <ele>2006</ele>
        <time>2019-07-01T12:24:24Z</time>
      </trkpt>
      <trkpt lat="42.4659" lon="1.83309">
        <ele>2005</ele>
        <time>2019-07-01T12:24:31Z</time>
      </trkpt>
      <trkpt lat="42.46596" lon="1.83303">
        <ele>2004</ele>
        <time>2019-07-01T12:24:38Z</time>
      </trkpt>
      <trkpt lat="42.46602" lon="1.833">
        <ele>2003</ele>
        <time>2019-07-01T12:24:44Z</time>
      </trkpt>
      <trkpt lat="42.46607" lon="1.83295">
        <ele>2002</ele>
        <time>2019-07-01T12:24:50Z</time>
      </trkpt>
      <trkpt lat="42.46613" lon="1.83286">
        <ele>2001</ele>
        <time>2019-07-01T12:24:56Z</time>
      </trkpt>
      <trkpt lat="42.46619" lon="1.83279">
        <ele>2001</ele>
        <time>2019-07-01T12:25:02Z</time>
      </trkpt>
      <trkpt lat="42.46623" lon="1.8327">
        <ele>2001</ele>
        <time>2019-07-01T12:25:08Z</time>
      </trkpt>
      <trkpt lat="42.46629" lon="1.83264">
        <ele>2000</ele>
        <time>2019-07-01T12:25:14Z</time>
      </trkpt>
      <trkpt lat="42.46633" lon="1.83257">
        <ele>2000</ele>
        <time>2019-07-01T12:25:21Z</time>
      </trkpt>
      <trkpt lat="42.46636" lon="1.83247">
        <ele>2000</ele>
        <time>2019-07-01T12:25:28Z</time>
      </trkpt>
      <trkpt lat="42.46641" lon="1.83239">
        <ele>1999</ele>
        <time>2019-07-01T12:25:35Z</time>
      </trkpt>
      <trkpt lat="42.46645" lon="1.83229">
        <ele>1999</ele>
        <time>2019-07-01T12:25:41Z</time>
      </trkpt>
      <trkpt lat="42.4665" lon="1.8322">
        <ele>1999</ele>
        <time>2019-07-01T12:25:48Z</time>
      </trkpt>
      <trkpt lat="42.46661" lon="1.83192">
        <ele>1998</ele>
        <time>2019-07-01T12:26:08Z</time>
      </trkpt>
      <trkpt lat="42.46675" lon="1.83165">
        <ele>1999</ele>
        <time>2019-07-01T12:26:28Z</time>
      </trkpt>
      <trkpt lat="42.46682" lon="1.8316">
        <ele>1999</ele>
        <time>2019-07-01T12:26:34Z</time>
      </trkpt>
      <trkpt lat="42.46691" lon="1.83143">
        <ele>1999</ele>
        <time>2019-07-01T12:26:49Z</time>
      </trkpt>
      <trkpt lat="42.46696" lon="1.83134">
        <ele>1999</ele>
        <time>2019-07-01T12:26:56Z</time>
      </trkpt>
      <trkpt lat="42.46702" lon="1.83127">
        <ele>1999</ele>
        <time>2019-07-01T12:27:03Z</time>
      </trkpt>
      <trkpt lat="42.46709" lon="1.83108">
        <ele>1999</ele>
        <time>2019-07-01T12:27:16Z</time>
      </trkpt>
      <trkpt lat="42.46712" lon="1.83098">
        <ele>1998</ele>
        <time>2019-07-01T12:27:24Z</time>
      </trkpt>
      <trkpt lat="42.46718" lon="1.8308">
        <ele>1998</ele>
        <time>2019-07-01T12:27:38Z</time>
      </trkpt>
      <trkpt lat="42.46728" lon="1.83063">
        <ele>1998</ele>
        <time>2019-07-01T12:27:51Z</time>
      </trkpt>
      <trkpt lat="42.46734" lon="1.83058">
        <ele>1998</ele>
        <time>2019-07-01T12:27:57Z</time>
      </trkpt>
      <trkpt lat="42.46747" lon="1.83032">
        <ele>1998</ele>
        <time>2019-07-01T12:28:17Z</time>
      </trkpt>
      <trkpt lat="42.46749" lon="1.83023">
        <ele>1998</ele>
        <time>2019-07-01T12:28:25Z</time>
      </trkpt>
      <trkpt lat="42.46757" lon="1.83007">
        <ele>1998</ele>
        <time>2019-07-01T12:28:40Z</time>
      </trkpt>
      <trkpt lat="42.46763" lon="1.83006">
        <ele>1998</ele>
        <time>2019-07-01T12:29:47Z</time>
      </trkpt>
      <trkpt lat="42.46772" lon="1.83001">
        <ele>1997</ele>
        <time>2019-07-01T12:30:25Z</time>
      </trkpt>
      <trkpt lat="42.46775" lon="1.8299">
        <ele>1997</ele>
        <time>2019-07-01T12:30:34Z</time>
      </trkpt>
      <trkpt lat="42.46781" lon="1.82976">
        <ele>1997</ele>
        <time>2019-07-01T12:30:48Z</time>
      </trkpt>
      <trkpt lat="42.4679" lon="1.8295">
        <ele>1995</ele>
        <time>2019-07-01T12:31:12Z</time>
      </trkpt>
      <trkpt lat="42.46797" lon="1.82955">
        <ele>1994</ele>
        <time>2019-07-01T12:31:19Z</time>
      </trkpt>
      <trkpt lat="42.46806" lon="1.82972">
        <ele>1991</ele>
        <time>2019-07-01T12:31:35Z</time>
      </trkpt>
      <trkpt lat="42.46801" lon="1.82982">
        <ele>1991</ele>
        <time>2019-07-01T12:32:15Z</time>
      </trkpt>
      <trkpt lat="42.468" lon="1.82992">
        <ele>1991</ele>
        <time>2019-07-01T12:32:22Z</time>
      </trkpt>
      <trkpt lat="42.46796" lon="1.82999">
        <ele>1991</ele>
        <time>2019-07-01T12:32:34Z</time>
      </trkpt>
      <trkpt lat="42.46796" lon="1.83007">
        <ele>1991</ele>
        <time>2019-07-01T12:32:40Z</time>
      </trkpt>
      <trkpt lat="42.46797" lon="1.83016">
        <ele>1991</ele>
        <time>2019-07-01T12:32:47Z</time>
      </trkpt>
      <trkpt lat="42.46795" lon="1.83023">
        <ele>1991</ele>
        <time>2019-07-01T12:32:51Z</time>
      </trkpt>
      <trkpt lat="42.46791" lon="1.83028">
        <ele>1991</ele>
        <time>2019-07-01T12:32:55Z</time>
      </trkpt>
      <trkpt lat="42.46789" lon="1.83035">
        <ele>1990</ele>
        <time>2019-07-01T12:33:00Z</time>
      </trkpt>
      <trkpt lat="42.46784" lon="1.83049">
        <ele>1990</ele>
        <time>2019-07-01T12:33:09Z</time>
      </trkpt>
      <trkpt lat="42.46782" lon="1.83056">
        <ele>1990</ele>
        <time>2019-07-01T12:33:14Z</time>
      </trkpt>
      <trkpt lat="42.46775" lon="1.83067">
        <ele>1990</ele>
        <time>2019-07-01T12:33:23Z</time>
      </trkpt>
      <trkpt lat="42.46771" lon="1.8308">
        <ele>1989</ele>
        <time>2019-07-01T12:33:33Z</time>
      </trkpt>
      <trkpt lat="42.46769" lon="1.83087">
        <ele>1989</ele>
        <time>2019-07-01T12:33:37Z</time>
      </trkpt>
      <trkpt lat="42.46764" lon="1.8309">
        <ele>1988</ele>
        <time>2019-07-01T12:33:54Z</time>
      </trkpt>
      <trkpt lat="42.4677" lon="1.83094">
        <ele>1987</ele>
        <time>2019-07-01T12:34:11Z</time>
      </trkpt>
      <trkpt lat="42.46773" lon="1.83104">
        <ele>1986</ele>
        <time>2019-07-01T12:34:17Z</time>
      </trkpt>
      <trkpt lat="42.46771" lon="1.8312">
        <ele>1985</ele>
        <time>2019-07-01T12:34:30Z</time>
      </trkpt>
      <trkpt lat="42.46761" lon="1.83142">
        <ele>1985</ele>
        <time>2019-07-01T12:34:49Z</time>
      </trkpt>
      <trkpt lat="42.46755" lon="1.83151">
        <ele>1985</ele>
        <time>2019-07-01T12:34:56Z</time>
      </trkpt>
      <trkpt lat="42.46753" lon="1.83158">
        <ele>1985</ele>
        <time>2019-07-01T12:35:00Z</time>
      </trkpt>
      <trkpt lat="42.46742" lon="1.83177">
        <ele>1984</ele>
        <time>2019-07-01T12:35:16Z</time>
      </trkpt>
      <trkpt lat="42.46735" lon="1.832">
        <ele>1983</ele>
        <time>2019-07-01T12:35:32Z</time>
      </trkpt>
      <trkpt lat="42.46733" lon="1.83209">
        <ele>1982</ele>
        <time>2019-07-01T12:35:41Z</time>
      </trkpt>
      <trkpt lat="42.46736" lon="1.83219">
        <ele>1981</ele>
        <time>2019-07-01T12:35:51Z</time>
      </trkpt>
      <trkpt lat="42.46738" lon="1.83222">
        <ele>1979</ele>
        <time>2019-07-01T12:36:27Z</time>
      </trkpt>
      <trkpt lat="42.46744" lon="1.83209">
        <ele>1978</ele>
        <time>2019-07-01T12:36:45Z</time>
      </trkpt>
      <trkpt lat="42.4675" lon="1.83203">
        <ele>1977</ele>
        <time>2019-07-01T12:36:51Z</time>
      </trkpt>
      <trkpt lat="42.46758" lon="1.83206">
        <ele>1977</ele>
        <time>2019-07-01T12:36:55Z</time>
      </trkpt>
      <trkpt lat="42.46761" lon="1.83213">
        <ele>1976</ele>
        <time>2019-07-01T12:36:58Z</time>
      </trkpt>
      <trkpt lat="42.46759" lon="1.83221">
        <ele>1976</ele>
        <time>2019-07-01T12:37:02Z</time>
      </trkpt>
      <trkpt lat="42.46753" lon="1.83231">
        <ele>1974</ele>
        <time>2019-07-01T12:37:11Z</time>
      </trkpt>
      <trkpt lat="42.4675" lon="1.83246">
        <ele>1972</ele>
        <time>2019-07-01T12:37:35Z</time>
      </trkpt>
      <trkpt lat="42.46749" lon="1.83253">
        <ele>1971</ele>
        <time>2019-07-01T12:37:41Z</time>
      </trkpt>
      <trkpt lat="42.46743" lon="1.83265">
        <ele>1969</ele>
        <time>2019-07-01T12:37:55Z</time>
      </trkpt>
      <trkpt lat="42.46745" lon="1.83277">
        <ele>1967</ele>
        <time>2019-07-01T12:38:10Z</time>
      </trkpt>
      <trkpt lat="42.46751" lon="1.83292">
        <ele>1965</ele>
        <time>2019-07-01T12:38:21Z</time>
      </trkpt>
      <trkpt lat="42.46754" lon="1.83301">
        <ele>1964</ele>
        <time>2019-07-01T12:38:27Z</time>
      </trkpt>
      <trkpt lat="42.46755" lon="1.83311">
        <ele>1965</ele>
        <time>2019-07-01T12:38:37Z</time>
      </trkpt>
      <trkpt lat="42.46763" lon="1.8334">
        <ele>1964</ele>
        <time>2019-07-01T12:38:57Z</time>
      </trkpt>
      <trkpt lat="42.46753" lon="1.83328">
        <ele>1964</ele>
        <time>2019-07-01T12:39:10Z</time>
      </trkpt>
      <trkpt lat="42.46759" lon="1.83335">
        <ele>1963</ele>
        <time>2019-07-01T12:39:38Z</time>
      </trkpt>
      <trkpt lat="42.46762" lon="1.83341">
        <ele>1963</ele>
        <time>2019-07-01T12:39:42Z</time>
      </trkpt>
      <trkpt lat="42.46766" lon="1.83355">
        <ele>1962</ele>
        <time>2019-07-01T12:39:54Z</time>
      </trkpt>
      <trkpt lat="42.46763" lon="1.83363">
        <ele>1962</ele>
        <time>2019-07-01T12:39:59Z</time>
      </trkpt>
      <trkpt lat="42.46755" lon="1.83397">
        <ele>1962</ele>
        <time>2019-07-01T12:40:22Z</time>
      </trkpt>
      <trkpt lat="42.46752" lon="1.83404">
        <ele>1961</ele>
        <time>2019-07-01T12:40:26Z</time>
      </trkpt>
      <trkpt lat="42.46749" lon="1.83411">
        <ele>1962</ele>
        <time>2019-07-01T12:40:31Z</time>
      </trkpt>
      <trkpt lat="42.46752" lon="1.83418">
        <ele>1961</ele>
        <time>2019-07-01T12:40:36Z</time>
      </trkpt>
      <trkpt lat="42.46743" lon="1.83451">
        <ele>1961</ele>
        <time>2019-07-01T12:41:10Z</time>
      </trkpt>
      <trkpt lat="42.46743" lon="1.83459">
        <ele>1961</ele>
        <time>2019-07-01T12:41:16Z</time>
      </trkpt>
      <trkpt lat="42.46745" lon="1.83466">
        <ele>1962</ele>
        <time>2019-07-01T12:41:21Z</time>
      </trkpt>
      <trkpt lat="42.46738" lon="1.83481">
        <ele>1961</ele>
        <time>2019-07-01T12:41:31Z</time>
      </trkpt>
      <trkpt lat="42.46735" lon="1.83489">
        <ele>1961</ele>
        <time>2019-07-01T12:41:37Z</time>
      </trkpt>
      <trkpt lat="42.4673" lon="1.83495">
        <ele>1961</ele>
        <time>2019-07-01T12:41:42Z</time>
      </trkpt>
      <trkpt lat="42.46723" lon="1.83511">
        <ele>1960</ele>
        <time>2019-07-01T12:41:53Z</time>
      </trkpt>
      <trkpt lat="42.4671" lon="1.83538">
        <ele>1960</ele>
        <time>2019-07-01T12:42:15Z</time>
      </trkpt>
      <trkpt lat="42.46708" lon="1.83545">
        <ele>1960</ele>
        <time>2019-07-01T12:42:20Z</time>
      </trkpt>
      <trkpt lat="42.46704" lon="1.83551">
        <ele>1959</ele>
        <time>2019-07-01T12:42:26Z</time>
      </trkpt>
      <trkpt lat="42.46701" lon="1.83559">
        <ele>1959</ele>
        <time>2019-07-01T12:42:32Z</time>
      </trkpt>
      <trkpt lat="42.46695" lon="1.83567">
        <ele>1959</ele>
        <time>2019-07-01T12:42:39Z</time>
      </trkpt>
      <trkpt lat="42.46689" lon="1.83571">
        <ele>1959</ele>
        <time>2019-07-01T12:42:44Z</time>
      </trkpt>
      <trkpt lat="42.46685" lon="1.8358">
        <ele>1958</ele>
        <time>2019-07-01T12:42:51Z</time>
      </trkpt>
      <trkpt lat="42.46682" lon="1.83586">
        <ele>1958</ele>
        <time>2019-07-01T12:42:55Z</time>
      </trkpt>
      <trkpt lat="42.46677" lon="1.83589">
        <ele>1959</ele>
        <time>2019-07-01T12:43:00Z</time>
      </trkpt>
      <trkpt lat="42.46656" lon="1.83629">
        <ele>1956</ele>
        <time>2019-07-01T12:43:35Z</time>
      </trkpt>
      <trkpt lat="42.46653" lon="1.83635">
        <ele>1956</ele>
        <time>2019-07-01T12:43:41Z</time>
      </trkpt>
      <trkpt lat="42.4665" lon="1.83643">
        <ele>1955</ele>
        <time>2019-07-01T12:43:48Z</time>
      </trkpt>
      <trkpt lat="42.46647" lon="1.83649">
        <ele>1954</ele>
        <time>2019-07-01T12:43:53Z</time>
      </trkpt>
      <trkpt lat="42.46635" lon="1.83671">
        <ele>1952</ele>
        <time>2019-07-01T12:44:12Z</time>
      </trkpt>
      <trkpt lat="42.46631" lon="1.83681">
        <ele>1952</ele>
        <time>2019-07-01T12:44:17Z</time>
      </trkpt>
      <trkpt lat="42.46627" lon="1.83686">
        <ele>1953</ele>
        <time>2019-07-01T12:44:22Z</time>
      </trkpt>
      <trkpt lat="42.46627" lon="1.83693">
        <ele>1952</ele>
        <time>2019-07-01T12:44:27Z</time>
      </trkpt>
      <trkpt lat="42.46635" lon="1.83688">
        <ele>1950</ele>
        <time>2019-07-01T12:44:39Z</time>
      </trkpt>
      <trkpt lat="42.4664" lon="1.83684">
        <ele>1950</ele>
        <time>2019-07-01T12:44:46Z</time>
      </trkpt>
      <trkpt lat="42.46644" lon="1.83677">
        <ele>1950</ele>
        <time>2019-07-01T12:44:52Z</time>
      </trkpt>
      <trkpt lat="42.46656" lon="1.83665">
        <ele>1949</ele>
        <time>2019-07-01T12:45:07Z</time>
      </trkpt>
      <trkpt lat="42.46663" lon="1.83657">
        <ele>1949</ele>
        <time>2019-07-01T12:45:16Z</time>
      </trkpt>
      <trkpt lat="42.46678" lon="1.83641">
        <ele>1950</ele>
        <time>2019-07-01T12:45:33Z</time>
      </trkpt>
      <trkpt lat="42.46684" lon="1.83632">
        <ele>1950</ele>
        <time>2019-07-01T12:45:43Z</time>
      </trkpt>
      <trkpt lat="42.46705" lon="1.8362">
        <ele>1949</ele>
        <time>2019-07-01T12:46:02Z</time>
      </trkpt>
      <trkpt lat="42.46717" lon="1.8361">
        <ele>1948</ele>
        <time>2019-07-01T12:46:13Z</time>
      </trkpt>
      <trkpt lat="42.4672" lon="1.83602">
        <ele>1948</ele>
        <time>2019-07-01T12:46:20Z</time>
      </trkpt>
      <trkpt lat="42.46727" lon="1.83594">
        <ele>1949</ele>
        <time>2019-07-01T12:46:28Z</time>
      </trkpt>
      <trkpt lat="42.46735" lon="1.83599">
        <ele>1949</ele>
        <time>2019-07-01T12:46:56Z</time>
      </trkpt>
      <trkpt lat="42.46739" lon="1.83605">
        <ele>1950</ele>
        <time>2019-07-01T12:47:21Z</time>
      </trkpt>
      <trkpt lat="42.46741" lon="1.83578">
        <ele>1950</ele>
        <time>2019-07-01T12:47:48Z</time>
      </trkpt>
      <trkpt lat="42.46744" lon="1.83567">
        <ele>1950</ele>
        <time>2019-07-01T12:47:56Z</time>
      </trkpt>
      <trkpt lat="42.46749" lon="1.83558">
        <ele>1951</ele>
        <time>2019-07-01T12:48:04Z</time>
      </trkpt>
      <trkpt lat="42.46758" lon="1.8354">
        <ele>1951</ele>
        <time>2019-07-01T12:48:19Z</time>
      </trkpt>
      <trkpt lat="42.4677" lon="1.8352">
        <ele>1950</ele>
        <time>2019-07-01T12:48:38Z</time>
      </trkpt>
      <trkpt lat="42.46778" lon="1.835">
        <ele>1949</ele>
        <time>2019-07-01T12:49:11Z</time>
      </trkpt>
      <trkpt lat="42.46782" lon="1.83483">
        <ele>1948</ele>
        <time>2019-07-01T12:49:22Z</time>
      </trkpt>
      <trkpt lat="42.46787" lon="1.83483">
        <ele>1948</ele>
        <time>2019-07-01T12:49:28Z</time>
      </trkpt>
      <trkpt lat="42.46786" lon="1.83464">
        <ele>1948</ele>
        <time>2019-07-01T12:49:42Z</time>
      </trkpt>
      <trkpt lat="42.46787" lon="1.83454">
        <ele>1947</ele>
        <time>2019-07-01T12:49:48Z</time>
      </trkpt>
      <trkpt lat="42.46784" lon="1.83434">
        <ele>1946</ele>
        <time>2019-07-01T12:50:02Z</time>
      </trkpt>
      <trkpt lat="42.46786" lon="1.83401">
        <ele>1945</ele>
        <time>2019-07-01T12:50:20Z</time>
      </trkpt>
      <trkpt lat="42.46787" lon="1.83393">
        <ele>1945</ele>
        <time>2019-07-01T12:50:25Z</time>
      </trkpt>
      <trkpt lat="42.46791" lon="1.83386">
        <ele>1945</ele>
        <time>2019-07-01T12:50:31Z</time>
      </trkpt>
      <trkpt lat="42.46796" lon="1.83379">
        <ele>1946</ele>
        <time>2019-07-01T12:50:38Z</time>
      </trkpt>
      <trkpt lat="42.46799" lon="1.83375">
        <ele>1946</ele>
        <time>2019-07-01T12:51:14Z</time>
      </trkpt>
      <trkpt lat="42.46798" lon="1.83361">
        <ele>1946</ele>
        <time>2019-07-01T12:51:40Z</time>
      </trkpt>
      <trkpt lat="42.46796" lon="1.83353">
        <ele>1945</ele>
        <time>2019-07-01T12:52:22Z</time>
      </trkpt>
      <trkpt lat="42.46799" lon="1.83359">
        <ele>1948</ele>
        <time>2019-07-01T12:58:29Z</time>
      </trkpt>
      <trkpt lat="42.46808" lon="1.83369">
        <ele>1948</ele>
        <time>2019-07-01T12:59:02Z</time>
      </trkpt>
      <trkpt lat="42.46812" lon="1.83376">
        <ele>1948</ele>
        <time>2019-07-01T12:59:09Z</time>
      </trkpt>
      <trkpt lat="42.46816" lon="1.83393">
        <ele>1947</ele>
        <time>2019-07-01T12:59:24Z</time>
      </trkpt>
      <trkpt lat="42.46824" lon="1.83398">
        <ele>1947</ele>
        <time>2019-07-01T12:59:38Z</time>
      </trkpt>
      <trkpt lat="42.46832" lon="1.83407">
        <ele>1947</ele>
        <time>2019-07-01T12:59:50Z</time>
      </trkpt>
      <trkpt lat="42.46835" lon="1.83417">
        <ele>1948</ele>
        <time>2019-07-01T13:00:02Z</time>
      </trkpt>
      <trkpt lat="42.46832" lon="1.83425">
        <ele>1947</ele>
        <time>2019-07-01T13:01:04Z</time>
      </trkpt>
      <trkpt lat="42.4684" lon="1.83436">
        <ele>1947</ele>
        <time>2019-07-01T13:01:17Z</time>
      </trkpt>
      <trkpt lat="42.46845" lon="1.83444">
        <ele>1947</ele>
        <time>2019-07-01T13:01:23Z</time>
      </trkpt>
      <trkpt lat="42.46847" lon="1.83455">
        <ele>1947</ele>
        <time>2019-07-01T13:01:34Z</time>
      </trkpt>
      <trkpt lat="42.46848" lon="1.83469">
        <ele>1945</ele>
        <time>2019-07-01T13:01:50Z</time>
      </trkpt>
      <trkpt lat="42.46853" lon="1.83486">
        <ele>1943</ele>
        <time>2019-07-01T13:02:24Z</time>
      </trkpt>
      <trkpt lat="42.46852" lon="1.83497">
        <ele>1941</ele>
        <time>2019-07-01T13:02:31Z</time>
      </trkpt>
      <trkpt lat="42.46851" lon="1.83506">
        <ele>1942</ele>
        <time>2019-07-01T13:02:56Z</time>
      </trkpt>
      <trkpt lat="42.46861" lon="1.83511">
        <ele>1940</ele>
        <time>2019-07-01T13:03:53Z</time>
      </trkpt>
      <trkpt lat="42.46867" lon="1.83518">
        <ele>1941</ele>
        <time>2019-07-01T13:04:10Z</time>
      </trkpt>
      <trkpt lat="42.46865" lon="1.83537">
        <ele>1937</ele>
        <time>2019-07-01T13:04:47Z</time>
      </trkpt>
      <trkpt lat="42.46874" lon="1.83565">
        <ele>1934</ele>
        <time>2019-07-01T13:05:11Z</time>
      </trkpt>
      <trkpt lat="42.46865" lon="1.83568">
        <ele>1932</ele>
        <time>2019-07-01T13:05:24Z</time>
      </trkpt>
      <trkpt lat="42.4686" lon="1.83575">
        <ele>1931</ele>
        <time>2019-07-01T13:05:30Z</time>
      </trkpt>
      <trkpt lat="42.46858" lon="1.83585">
        <ele>1929</ele>
        <time>2019-07-01T13:05:43Z</time>
      </trkpt>
      <trkpt lat="42.46863" lon="1.83596">
        <ele>1930</ele>
        <time>2019-07-01T13:06:00Z</time>
      </trkpt>
      <trkpt lat="42.46861" lon="1.83594">
        <ele>1930</ele>
        <time>2019-07-01T13:06:38Z</time>
      </trkpt>
      <trkpt lat="42.46858" lon="1.8358">
        <ele>1930</ele>
        <time>2019-07-01T13:06:54Z</time>
      </trkpt>
      <trkpt lat="42.46858" lon="1.83579">
        <ele>1930</ele>
        <time>2019-07-01T13:07:22Z</time>
      </trkpt>
      <trkpt lat="42.46863" lon="1.83582">
        <ele>1930</ele>
        <time>2019-07-01T13:07:37Z</time>
      </trkpt>
      <trkpt lat="42.46865" lon="1.83593">
        <ele>1930</ele>
        <time>2019-07-01T13:08:12Z</time>
      </trkpt>
      <trkpt lat="42.46869" lon="1.83607">
        <ele>1930</ele>
        <time>2019-07-01T13:08:23Z</time>
      </trkpt>
      <trkpt lat="42.46868" lon="1.83616">
        <ele>1928</ele>
        <time>2019-07-01T13:09:00Z</time>
      </trkpt>
      <trkpt lat="42.46867" lon="1.83625">
        <ele>1926</ele>
        <time>2019-07-01T13:09:20Z</time>
      </trkpt>
      <trkpt lat="42.46861" lon="1.83637">
        <ele>1925</ele>
        <time>2019-07-01T13:09:46Z</time>
      </trkpt>
      <trkpt lat="42.46858" lon="1.83644">
        <ele>1924</ele>
        <time>2019-07-01T13:09:59Z</time>
      </trkpt>
      <trkpt lat="42.46859" lon="1.83654">
        <ele>1921</ele>
        <time>2019-07-01T13:10:14Z</time>
      </trkpt>
      <trkpt lat="42.46861" lon="1.83665">
        <ele>1921</ele>
        <time>2019-07-01T13:10:25Z</time>
      </trkpt>
      <trkpt lat="42.46863" lon="1.83678">
        <ele>1920</ele>
        <time>2019-07-01T13:10:38Z</time>
      </trkpt>
      <trkpt lat="42.46854" lon="1.83682">
        <ele>1919</ele>
        <time>2019-07-01T13:10:51Z</time>
      </trkpt>
      <trkpt lat="42.46852" lon="1.83692">
        <ele>1916</ele>
        <time>2019-07-01T13:11:05Z</time>
      </trkpt>
      <trkpt lat="42.46854" lon="1.83702">
        <ele>1915</ele>
        <time>2019-07-01T13:11:16Z</time>
      </trkpt>
      <trkpt lat="42.46851" lon="1.83714">
        <ele>1914</ele>
        <time>2019-07-01T13:11:27Z</time>
      </trkpt>
      <trkpt lat="42.46849" lon="1.83722">
        <ele>1913</ele>
        <time>2019-07-01T13:11:34Z</time>
      </trkpt>
      <trkpt lat="42.46856" lon="1.83729">
        <ele>1913</ele>
        <time>2019-07-01T13:11:44Z</time>
      </trkpt>
      <trkpt lat="42.4686" lon="1.83736">
        <ele>1913</ele>
        <time>2019-07-01T13:11:48Z</time>
      </trkpt>
      <trkpt lat="42.46861" lon="1.83748">
        <ele>1912</ele>
        <time>2019-07-01T13:12:00Z</time>
      </trkpt>
      <trkpt lat="42.4686" lon="1.8375">
        <ele>1911</ele>
        <time>2019-07-01T13:12:21Z</time>
      </trkpt>
      <trkpt lat="42.46862" lon="1.83759">
        <ele>1910</ele>
        <time>2019-07-01T13:12:28Z</time>
      </trkpt>
      <trkpt lat="42.46868" lon="1.83781">
        <ele>1908</ele>
        <time>2019-07-01T13:12:42Z</time>
      </trkpt>
      <trkpt lat="42.46874" lon="1.83798">
        <ele>1908</ele>
        <time>2019-07-01T13:12:50Z</time>
      </trkpt>
      <trkpt lat="42.46885" lon="1.83799">
        <ele>1907</ele>
        <time>2019-07-01T13:13:01Z</time>
      </trkpt>
      <trkpt lat="42.46881" lon="1.83799">
        <ele>1907</ele>
        <time>2019-07-01T13:13:20Z</time>
      </trkpt>
      <trkpt lat="42.46882" lon="1.83811">
        <ele>1907</ele>
        <time>2019-07-01T13:13:31Z</time>
      </trkpt>
      <trkpt lat="42.46895" lon="1.83823">
        <ele>1906</ele>
        <time>2019-07-01T13:13:57Z</time>
      </trkpt>
      <trkpt lat="42.46891" lon="1.83832">
        <ele>1905</ele>
        <time>2019-07-01T13:14:09Z</time>
      </trkpt>
      <trkpt lat="42.4689" lon="1.83841">
        <ele>1904</ele>
        <time>2019-07-01T13:14:17Z</time>
      </trkpt>
      <trkpt lat="42.46894" lon="1.83866">
        <ele>1902</ele>
        <time>2019-07-01T13:14:47Z</time>
      </trkpt>
      <trkpt lat="42.46897" lon="1.83876">
        <ele>1901</ele>
        <time>2019-07-01T13:14:54Z</time>
      </trkpt>
      <trkpt lat="42.46902" lon="1.83881">
        <ele>1901</ele>
        <time>2019-07-01T13:14:58Z</time>
      </trkpt>
      <trkpt lat="42.46927" lon="1.83914">
        <ele>1895</ele>
        <time>2019-07-01T13:15:38Z</time>
      </trkpt>
      <trkpt lat="42.46932" lon="1.83941">
        <ele>1891</ele>
        <time>2019-07-01T13:15:56Z</time>
      </trkpt>
      <trkpt lat="42.46933" lon="1.83951">
        <ele>1890</ele>
        <time>2019-07-01T13:16:05Z</time>
      </trkpt>
      <trkpt lat="42.46938" lon="1.83959">
        <ele>1888</ele>
        <time>2019-07-01T13:16:16Z</time>
      </trkpt>
      <trkpt lat="42.46944" lon="1.83972">
        <ele>1887</ele>
        <time>2019-07-01T13:16:28Z</time>
      </trkpt>
      <trkpt lat="42.46947" lon="1.83978">
        <ele>1886</ele>
        <time>2019-07-01T13:16:34Z</time>
      </trkpt>
      <trkpt lat="42.46952" lon="1.83999">
        <ele>1882</ele>
        <time>2019-07-01T13:16:50Z</time>
      </trkpt>
      <trkpt lat="42.46952" lon="1.84014">
        <ele>1880</ele>
        <time>2019-07-01T13:17:03Z</time>
      </trkpt>
      <trkpt lat="42.46955" lon="1.84013">
        <ele>1878</ele>
        <time>2019-07-01T13:18:20Z</time>
      </trkpt>
      <trkpt lat="42.46955" lon="1.84022">
        <ele>1877</ele>
        <time>2019-07-01T13:18:35Z</time>
      </trkpt>
      <trkpt lat="42.46958" lon="1.84029">
        <ele>1876</ele>
        <time>2019-07-01T13:18:46Z</time>
      </trkpt>
      <trkpt lat="42.46962" lon="1.84035">
        <ele>1876</ele>
        <time>2019-07-01T13:18:56Z</time>
      </trkpt>
      <trkpt lat="42.46976" lon="1.84055">
        <ele>1873</ele>
        <time>2019-07-01T13:19:31Z</time>
      </trkpt>
      <trkpt lat="42.46981" lon="1.8406">
        <ele>1872</ele>
        <time>2019-07-01T13:19:37Z</time>
      </trkpt>
      <trkpt lat="42.46985" lon="1.84073">
        <ele>1871</ele>
        <time>2019-07-01T13:19:46Z</time>
      </trkpt>
      <trkpt lat="42.46993" lon="1.84076">
        <ele>1870</ele>
        <time>2019-07-01T13:19:55Z</time>
      </trkpt>
      <trkpt lat="42.47001" lon="1.84089">
        <ele>1869</ele>
        <time>2019-07-01T13:20:03Z</time>
      </trkpt>
      <trkpt lat="42.47012" lon="1.84098">
        <ele>1868</ele>
        <time>2019-07-01T13:20:18Z</time>
      </trkpt>
      <trkpt lat="42.47029" lon="1.84128">
        <ele>1865</ele>
        <time>2019-07-01T13:20:47Z</time>
      </trkpt>
      <trkpt lat="42.47038" lon="1.84135">
        <ele>1864</ele>
        <time>2019-07-01T13:20:59Z</time>
      </trkpt>
      <trkpt lat="42.47042" lon="1.84142">
        <ele>1863</ele>
        <time>2019-07-01T13:21:04Z</time>
      </trkpt>
      <trkpt lat="42.47049" lon="1.84147">
        <ele>1862</ele>
        <time>2019-07-01T13:21:17Z</time>
      </trkpt>
      <trkpt lat="42.47048" lon="1.84137">
        <ele>1861</ele>
        <time>2019-07-01T13:21:42Z</time>
      </trkpt>
      <trkpt lat="42.47053" lon="1.84141">
        <ele>1860</ele>
        <time>2019-07-01T13:22:03Z</time>
      </trkpt>
      <trkpt lat="42.47051" lon="1.84149">
        <ele>1860</ele>
        <time>2019-07-01T13:22:15Z</time>
      </trkpt>
      <trkpt lat="42.47055" lon="1.84155">
        <ele>1859</ele>
        <time>2019-07-01T13:22:20Z</time>
      </trkpt>
      <trkpt lat="42.4706" lon="1.84157">
        <ele>1859</ele>
        <time>2019-07-01T13:22:26Z</time>
      </trkpt>
      <trkpt lat="42.47066" lon="1.84164">
        <ele>1857</ele>
        <time>2019-07-01T13:22:42Z</time>
      </trkpt>
      <trkpt lat="42.47072" lon="1.84166">
        <ele>1856</ele>
        <time>2019-07-01T13:22:48Z</time>
      </trkpt>
      <trkpt lat="42.47083" lon="1.84178">
        <ele>1855</ele>
        <time>2019-07-01T13:23:00Z</time>
      </trkpt>
      <trkpt lat="42.47087" lon="1.84188">
        <ele>1854</ele>
        <time>2019-07-01T13:23:08Z</time>
      </trkpt>
      <trkpt lat="42.47086" lon="1.84197">
        <ele>1853</ele>
        <time>2019-07-01T13:23:14Z</time>
      </trkpt>
      <trkpt lat="42.47089" lon="1.84204">
        <ele>1853</ele>
        <time>2019-07-01T13:23:17Z</time>
      </trkpt>
      <trkpt lat="42.47086" lon="1.84227">
        <ele>1853</ele>
        <time>2019-07-01T13:23:34Z</time>
      </trkpt>
      <trkpt lat="42.47084" lon="1.8424">
        <ele>1853</ele>
        <time>2019-07-01T13:23:59Z</time>
      </trkpt>
      <trkpt lat="42.4708" lon="1.84257">
        <ele>1853</ele>
        <time>2019-07-01T13:24:09Z</time>
      </trkpt>
      <trkpt lat="42.4708" lon="1.84266">
        <ele>1853</ele>
        <time>2019-07-01T13:24:16Z</time>
      </trkpt>
      <trkpt lat="42.47083" lon="1.84287">
        <ele>1852</ele>
        <time>2019-07-01T13:24:29Z</time>
      </trkpt>
      <trkpt lat="42.47087" lon="1.84294">
        <ele>1851</ele>
        <time>2019-07-01T13:24:37Z</time>
      </trkpt>
      <trkpt lat="42.47097" lon="1.84318">
        <ele>1848</ele>
        <time>2019-07-01T13:25:04Z</time>
      </trkpt>
      <trkpt lat="42.47095" lon="1.84327">
        <ele>1846</ele>
        <time>2019-07-01T13:25:12Z</time>
      </trkpt>
      <trkpt lat="42.47103" lon="1.84351">
        <ele>1842</ele>
        <time>2019-07-01T13:25:38Z</time>
      </trkpt>
      <trkpt lat="42.47108" lon="1.84357">
        <ele>1840</ele>
        <time>2019-07-01T13:25:48Z</time>
      </trkpt>
      <trkpt lat="42.47111" lon="1.84366">
        <ele>1839</ele>
        <time>2019-07-01T13:25:54Z</time>
      </trkpt>
      <trkpt lat="42.47113" lon="1.84382">
        <ele>1836</ele>
        <time>2019-07-01T13:26:08Z</time>
      </trkpt>
      <trkpt lat="42.47111" lon="1.84387">
        <ele>1835</ele>
        <time>2019-07-01T13:26:12Z</time>
      </trkpt>
      <trkpt lat="42.47106" lon="1.8439">
        <ele>1835</ele>
        <time>2019-07-01T13:26:17Z</time>
      </trkpt>
      <trkpt lat="42.47097" lon="1.84393">
        <ele>1835</ele>
        <time>2019-07-01T13:26:24Z</time>
      </trkpt>
      <trkpt lat="42.47078" lon="1.844">
        <ele>1834</ele>
        <time>2019-07-01T13:26:42Z</time>
      </trkpt>
      <trkpt lat="42.47069" lon="1.84397">
        <ele>1834</ele>
        <time>2019-07-01T13:26:49Z</time>
      </trkpt>
      <trkpt lat="42.47064" lon="1.84393">
        <ele>1833</ele>
        <time>2019-07-01T13:26:53Z</time>
      </trkpt>
      <trkpt lat="42.47061" lon="1.84387">
        <ele>1832</ele>
        <time>2019-07-01T13:26:59Z</time>
      </trkpt>
      <trkpt lat="42.47052" lon="1.84367">
        <ele>1835</ele>
        <time>2019-07-01T13:27:26Z</time>
      </trkpt>
      <trkpt lat="42.47043" lon="1.84348">
        <ele>1835</ele>
        <time>2019-07-01T13:27:43Z</time>
      </trkpt>
      <trkpt lat="42.4704" lon="1.8434">
        <ele>1835</ele>
        <time>2019-07-01T13:27:52Z</time>
      </trkpt>
      <trkpt lat="42.47034" lon="1.84335">
        <ele>1836</ele>
        <time>2019-07-01T13:28:02Z</time>
      </trkpt>
      <trkpt lat="42.4703" lon="1.84334">
        <ele>1835</ele>
        <time>2019-07-01T13:28:24Z</time>
      </trkpt>
      <trkpt lat="42.47026" lon="1.8433">
        <ele>1835</ele>
        <time>2019-07-01T13:28:39Z</time>
      </trkpt>
      <trkpt lat="42.47019" lon="1.84329">
        <ele>1833</ele>
        <time>2019-07-01T13:28:49Z</time>
      </trkpt>
      <trkpt lat="42.47013" lon="1.84329">
        <ele>1833</ele>
        <time>2019-07-01T13:28:56Z</time>
      </trkpt>
      <trkpt lat="42.46999" lon="1.84331">
        <ele>1831</ele>
        <time>2019-07-01T13:29:11Z</time>
      </trkpt>
      <trkpt lat="42.46994" lon="1.84332">
        <ele>1830</ele>
        <time>2019-07-01T13:29:19Z</time>
      </trkpt>
      <trkpt lat="42.46989" lon="1.8433">
        <ele>1828</ele>
        <time>2019-07-01T13:29:29Z</time>
      </trkpt>
      <trkpt lat="42.46979" lon="1.84327">
        <ele>1828</ele>
        <time>2019-07-01T13:29:39Z</time>
      </trkpt>
      <trkpt lat="42.46975" lon="1.84328">
        <ele>1827</ele>
        <time>2019-07-01T13:29:44Z</time>
      </trkpt>
      <trkpt lat="42.4697" lon="1.84326">
        <ele>1826</ele>
        <time>2019-07-01T13:31:54Z</time>
      </trkpt>
      <trkpt lat="42.46964" lon="1.8431">
        <ele>1826</ele>
        <time>2019-07-01T13:32:19Z</time>
      </trkpt>
      <trkpt lat="42.46959" lon="1.84302">
        <ele>1826</ele>
        <time>2019-07-01T13:32:27Z</time>
      </trkpt>
      <trkpt lat="42.46958" lon="1.84293">
        <ele>1826</ele>
        <time>2019-07-01T13:32:33Z</time>
      </trkpt>
      <trkpt lat="42.46956" lon="1.84287">
        <ele>1827</ele>
        <time>2019-07-01T13:32:37Z</time>
      </trkpt>
      <trkpt lat="42.46953" lon="1.84281">
        <ele>1827</ele>
        <time>2019-07-01T13:32:41Z</time>
      </trkpt>
      <trkpt lat="42.46948" lon="1.84272">
        <ele>1828</ele>
        <time>2019-07-01T13:32:53Z</time>
      </trkpt>
      <trkpt lat="42.46937" lon="1.84248">
        <ele>1830</ele>
        <time>2019-07-01T13:33:09Z</time>
      </trkpt>
      <trkpt lat="42.46923" lon="1.84233">
        <ele>1831</ele>
        <time>2019-07-01T13:33:28Z</time>
      </trkpt>
      <trkpt lat="42.46916" lon="1.84229">
        <ele>1831</ele>
        <time>2019-07-01T13:33:33Z</time>
      </trkpt>
      <trkpt lat="42.46913" lon="1.84218">
        <ele>1832</ele>
        <time>2019-07-01T13:33:43Z</time>
      </trkpt>
      <trkpt lat="42.46913" lon="1.84202">
        <ele>1835</ele>
        <time>2019-07-01T13:33:59Z</time>
      </trkpt>
      <trkpt lat="42.46905" lon="1.84191">
        <ele>1836</ele>
        <time>2019-07-01T13:34:09Z</time>
      </trkpt>
      <trkpt lat="42.46899" lon="1.84186">
        <ele>1836</ele>
        <time>2019-07-01T13:34:14Z</time>
      </trkpt>
      <trkpt lat="42.46896" lon="1.84178">
        <ele>1837</ele>
        <time>2019-07-01T13:34:20Z</time>
      </trkpt>
      <trkpt lat="42.46893" lon="1.84168">
        <ele>1838</ele>
        <time>2019-07-01T13:34:27Z</time>
      </trkpt>
      <trkpt lat="42.46891" lon="1.8416">
        <ele>1840</ele>
        <time>2019-07-01T13:34:40Z</time>
      </trkpt>
      <trkpt lat="42.46889" lon="1.84151">
        <ele>1843</ele>
        <time>2019-07-01T13:34:55Z</time>
      </trkpt>
      <trkpt lat="42.46885" lon="1.84146">
        <ele>1846</ele>
        <time>2019-07-01T13:35:15Z</time>
      </trkpt>
      <trkpt lat="42.46878" lon="1.84137">
        <ele>1848</ele>
        <time>2019-07-01T13:35:27Z</time>
      </trkpt>
      <trkpt lat="42.46874" lon="1.8413">
        <ele>1849</ele>
        <time>2019-07-01T13:35:34Z</time>
      </trkpt>
      <trkpt lat="42.46869" lon="1.84128">
        <ele>1850</ele>
        <time>2019-07-01T13:35:48Z</time>
      </trkpt>
      <trkpt lat="42.46863" lon="1.84118">
        <ele>1849</ele>
        <time>2019-07-01T13:36:00Z</time>
      </trkpt>
      <trkpt lat="42.46861" lon="1.8411">
        <ele>1849</ele>
        <time>2019-07-01T13:36:05Z</time>
      </trkpt>
      <trkpt lat="42.46856" lon="1.84104">
        <ele>1849</ele>
        <time>2019-07-01T13:36:10Z</time>
      </trkpt>
      <trkpt lat="42.46851" lon="1.841">
        <ele>1849</ele>
        <time>2019-07-01T13:36:15Z</time>
      </trkpt>
      <trkpt lat="42.46851" lon="1.8409">
        <ele>1850</ele>
        <time>2019-07-01T13:36:23Z</time>
      </trkpt>
      <trkpt lat="42.46857" lon="1.84085">
        <ele>1849</ele>
        <time>2019-07-01T13:36:32Z</time>
      </trkpt>
      <trkpt lat="42.4685" lon="1.84079">
        <ele>1849</ele>
        <time>2019-07-01T13:36:48Z</time>
      </trkpt>
      <trkpt lat="42.46843" lon="1.84078">
        <ele>1849</ele>
        <time>2019-07-01T13:36:51Z</time>
      </trkpt>
      <trkpt lat="42.46831" lon="1.8407">
        <ele>1849</ele>
        <time>2019-07-01T13:37:01Z</time>
      </trkpt>
      <trkpt lat="42.46826" lon="1.84065">
        <ele>1849</ele>
        <time>2019-07-01T13:37:09Z</time>
      </trkpt>
      <trkpt lat="42.46823" lon="1.84059">
        <ele>1848</ele>
        <time>2019-07-01T13:37:14Z</time>
      </trkpt>
      <trkpt lat="42.46814" lon="1.84046">
        <ele>1848</ele>
        <time>2019-07-01T13:37:25Z</time>
      </trkpt>
      <trkpt lat="42.46808" lon="1.84042">
        <ele>1848</ele>
        <time>2019-07-01T13:37:30Z</time>
      </trkpt>
      <trkpt lat="42.46804" lon="1.84037">
        <ele>1848</ele>
        <time>2019-07-01T13:37:34Z</time>
      </trkpt>
      <trkpt lat="42.46798" lon="1.84033">
        <ele>1847</ele>
        <time>2019-07-01T13:37:43Z</time>
      </trkpt>
      <trkpt lat="42.46793" lon="1.84027">
        <ele>1845</ele>
        <time>2019-07-01T13:37:50Z</time>
      </trkpt>
      <trkpt lat="42.46784" lon="1.84027">
        <ele>1845</ele>
        <time>2019-07-01T13:38:03Z</time>
      </trkpt>
      <trkpt lat="42.46775" lon="1.84021">
        <ele>1844</ele>
        <time>2019-07-01T13:38:23Z</time>
      </trkpt>
      <trkpt lat="42.4678" lon="1.84035">
        <ele>1845</ele>
        <time>2019-07-01T13:38:42Z</time>
      </trkpt>
      <trkpt lat="42.46787" lon="1.84033">
        <ele>1845</ele>
        <time>2019-07-01T13:38:58Z</time>
      </trkpt>
      <trkpt lat="42.4678" lon="1.8403">
        <ele>1846</ele>
        <time>2019-07-01T13:41:35Z</time>
      </trkpt>
      <trkpt lat="42.46779" lon="1.84034">
        <ele>1847</ele>
        <time>2019-07-01T13:48:44Z</time>
      </trkpt>
      <trkpt lat="42.46766" lon="1.84037">
        <ele>1849</ele>
        <time>2019-07-01T13:49:36Z</time>
      </trkpt>
      <trkpt lat="42.4676" lon="1.84043">
        <ele>1851</ele>
        <time>2019-07-01T13:49:51Z</time>
      </trkpt>
      <trkpt lat="42.46752" lon="1.84054">
        <ele>1853</ele>
        <time>2019-07-01T13:50:18Z</time>
      </trkpt>
      <trkpt lat="42.46746" lon="1.84055">
        <ele>1854</ele>
        <time>2019-07-01T13:50:23Z</time>
      </trkpt>
      <trkpt lat="42.4674" lon="1.84061">
        <ele>1856</ele>
        <time>2019-07-01T13:50:42Z</time>
      </trkpt>
      <trkpt lat="42.46726" lon="1.84071">
        <ele>1857</ele>
        <time>2019-07-01T13:50:54Z</time>
      </trkpt>
      <trkpt lat="42.46724" lon="1.84083">
        <ele>1858</ele>
        <time>2019-07-01T13:51:06Z</time>
      </trkpt>
      <trkpt lat="42.46715" lon="1.84085">
        <ele>1858</ele>
        <time>2019-07-01T13:51:32Z</time>
      </trkpt>
      <trkpt lat="42.46709" lon="1.84088">
        <ele>1858</ele>
        <time>2019-07-01T13:51:38Z</time>
      </trkpt>
      <trkpt lat="42.46695" lon="1.84089">
        <ele>1860</ele>
        <time>2019-07-01T13:51:53Z</time>
      </trkpt>
      <trkpt lat="42.46671" lon="1.84099">
        <ele>1860</ele>
        <time>2019-07-01T13:52:16Z</time>
      </trkpt>
      <trkpt lat="42.46664" lon="1.84104">
        <ele>1861</ele>
        <time>2019-07-01T13:52:24Z</time>
      </trkpt>
      <trkpt lat="42.46655" lon="1.84109">
        <ele>1861</ele>
        <time>2019-07-01T13:52:32Z</time>
      </trkpt>
      <trkpt lat="42.46649" lon="1.84116">
        <ele>1861</ele>
        <time>2019-07-01T13:52:40Z</time>
      </trkpt>
      <trkpt lat="42.46641" lon="1.84117">
        <ele>1861</ele>
        <time>2019-07-01T13:52:46Z</time>
      </trkpt>
      <trkpt lat="42.46608" lon="1.84133">
        <ele>1865</ele>
        <time>2019-07-01T13:53:22Z</time>
      </trkpt>
      <trkpt lat="42.46601" lon="1.8413">
        <ele>1866</ele>
        <time>2019-07-01T13:53:34Z</time>
      </trkpt>
      <trkpt lat="42.46599" lon="1.84145">
        <ele>1867</ele>
        <time>2019-07-01T13:53:47Z</time>
      </trkpt>
      <trkpt lat="42.46594" lon="1.84154">
        <ele>1867</ele>
        <time>2019-07-01T13:53:54Z</time>
      </trkpt>
      <trkpt lat="42.46577" lon="1.84174">
        <ele>1868</ele>
        <time>2019-07-01T13:54:17Z</time>
      </trkpt>
      <trkpt lat="42.46571" lon="1.84178">
        <ele>1868</ele>
        <time>2019-07-01T13:54:23Z</time>
      </trkpt>
      <trkpt lat="42.46558" lon="1.84196">
        <ele>1868</ele>
        <time>2019-07-01T13:54:40Z</time>
      </trkpt>
      <trkpt lat="42.46552" lon="1.84202">
        <ele>1869</ele>
        <time>2019-07-01T13:54:47Z</time>
      </trkpt>
      <trkpt lat="42.46544" lon="1.84211">
        <ele>1868</ele>
        <time>2019-07-01T13:54:58Z</time>
      </trkpt>
      <trkpt lat="42.46535" lon="1.84218">
        <ele>1868</ele>
        <time>2019-07-01T13:55:08Z</time>
      </trkpt>
      <trkpt lat="42.46518" lon="1.84239">
        <ele>1870</ele>
        <time>2019-07-01T13:55:29Z</time>
      </trkpt>
      <trkpt lat="42.46509" lon="1.84244">
        <ele>1870</ele>
        <time>2019-07-01T13:55:36Z</time>
      </trkpt>
      <trkpt lat="42.46502" lon="1.84247">
        <ele>1871</ele>
        <time>2019-07-01T13:55:43Z</time>
      </trkpt>
      <trkpt lat="42.46496" lon="1.84252">
        <ele>1871</ele>
        <time>2019-07-01T13:55:47Z</time>
      </trkpt>
      <trkpt lat="42.46488" lon="1.84262">
        <ele>1872</ele>
        <time>2019-07-01T13:55:58Z</time>
      </trkpt>
      <trkpt lat="42.46466" lon="1.8427">
        <ele>1872</ele>
        <time>2019-07-01T13:56:21Z</time>
      </trkpt>
      <trkpt lat="42.46468" lon="1.84266">
        <ele>1874</ele>
        <time>2019-07-01T13:57:16Z</time>
      </trkpt>
      <trkpt lat="42.46458" lon="1.84271">
        <ele>1874</ele>
        <time>2019-07-01T13:58:12Z</time>
      </trkpt>
      <trkpt lat="42.4645" lon="1.8427">
        <ele>1875</ele>
        <time>2019-07-01T13:58:20Z</time>
      </trkpt>
      <trkpt lat="42.46441" lon="1.84273">
        <ele>1876</ele>
        <time>2019-07-01T13:58:30Z</time>
      </trkpt>
      <trkpt lat="42.4643" lon="1.84272">
        <ele>1877</ele>
        <time>2019-07-01T13:58:39Z</time>
      </trkpt>
      <trkpt lat="42.46422" lon="1.84272">
        <ele>1877</ele>
        <time>2019-07-01T13:58:45Z</time>
      </trkpt>
      <trkpt lat="42.46415" lon="1.84274">
        <ele>1878</ele>
        <time>2019-07-01T13:58:53Z</time>
      </trkpt>
      <trkpt lat="42.46406" lon="1.84275">
        <ele>1878</ele>
        <time>2019-07-01T13:59:02Z</time>
      </trkpt>
      <trkpt lat="42.46388" lon="1.84278">
        <ele>1880</ele>
        <time>2019-07-01T13:59:18Z</time>
      </trkpt>
      <trkpt lat="42.46374" lon="1.84287">
        <ele>1881</ele>
        <time>2019-07-01T13:59:32Z</time>
      </trkpt>
      <trkpt lat="42.46368" lon="1.84285">
        <ele>1881</ele>
        <time>2019-07-01T13:59:37Z</time>
      </trkpt>
      <trkpt lat="42.46343" lon="1.84291">
        <ele>1881</ele>
        <time>2019-07-01T14:00:00Z</time>
      </trkpt>
      <trkpt lat="42.46335" lon="1.84291">
        <ele>1882</ele>
        <time>2019-07-01T14:00:07Z</time>
      </trkpt>
      <trkpt lat="42.46318" lon="1.84294">
        <ele>1882</ele>
        <time>2019-07-01T14:00:22Z</time>
      </trkpt>
      <trkpt lat="42.4631" lon="1.84302">
        <ele>1882</ele>
        <time>2019-07-01T14:00:34Z</time>
      </trkpt>
      <trkpt lat="42.46309" lon="1.84314">
        <ele>1881</ele>
        <time>2019-07-01T14:00:44Z</time>
      </trkpt>
      <trkpt lat="42.46302" lon="1.84307">
        <ele>1882</ele>
        <time>2019-07-01T14:00:56Z</time>
      </trkpt>
      <trkpt lat="42.46274" lon="1.84307">
        <ele>1882</ele>
        <time>2019-07-01T14:01:16Z</time>
      </trkpt>
      <trkpt lat="42.46266" lon="1.8431">
        <ele>1882</ele>
        <time>2019-07-01T14:01:21Z</time>
      </trkpt>
      <trkpt lat="42.46239" lon="1.84312">
        <ele>1883</ele>
        <time>2019-07-01T14:01:50Z</time>
      </trkpt>
      <trkpt lat="42.46232" lon="1.84308">
        <ele>1883</ele>
        <time>2019-07-01T14:01:58Z</time>
      </trkpt>
      <trkpt lat="42.46225" lon="1.84301">
        <ele>1884</ele>
        <time>2019-07-01T14:02:10Z</time>
      </trkpt>
      <trkpt lat="42.46219" lon="1.84295">
        <ele>1886</ele>
        <time>2019-07-01T14:02:20Z</time>
      </trkpt>
      <trkpt lat="42.46212" lon="1.84296">
        <ele>1886</ele>
        <time>2019-07-01T14:02:25Z</time>
      </trkpt>
      <trkpt lat="42.46205" lon="1.84296">
        <ele>1887</ele>
        <time>2019-07-01T14:02:35Z</time>
      </trkpt>
      <trkpt lat="42.46184" lon="1.84288">
        <ele>1888</ele>
        <time>2019-07-01T14:02:59Z</time>
      </trkpt>
      <trkpt lat="42.46176" lon="1.84287">
        <ele>1888</ele>
        <time>2019-07-01T14:03:03Z</time>
      </trkpt>
      <trkpt lat="42.46163" lon="1.84281">
        <ele>1889</ele>
        <time>2019-07-01T14:03:13Z</time>
      </trkpt>
      <trkpt lat="42.46145" lon="1.84269">
        <ele>1890</ele>
        <time>2019-07-01T14:03:32Z</time>
      </trkpt>
      <trkpt lat="42.46137" lon="1.84266">
        <ele>1889</ele>
        <time>2019-07-01T14:03:44Z</time>
      </trkpt>
      <trkpt lat="42.46131" lon="1.84274">
        <ele>1887</ele>
        <time>2019-07-01T14:03:51Z</time>
      </trkpt>
      <trkpt lat="42.46127" lon="1.84281">
        <ele>1886</ele>
        <time>2019-07-01T14:03:57Z</time>
      </trkpt>
      <trkpt lat="42.46084" lon="1.84284">
        <ele>1884</ele>
        <time>2019-07-01T14:04:31Z</time>
      </trkpt>
      <trkpt lat="42.46076" lon="1.84288">
        <ele>1884</ele>
        <time>2019-07-01T14:04:37Z</time>
      </trkpt>
      <trkpt lat="42.46066" lon="1.84293">
        <ele>1883</ele>
        <time>2019-07-01T14:04:49Z</time>
      </trkpt>
      <trkpt lat="42.46059" lon="1.84294">
        <ele>1883</ele>
        <time>2019-07-01T14:04:55Z</time>
      </trkpt>
      <trkpt lat="42.46051" lon="1.84294">
        <ele>1883</ele>
        <time>2019-07-01T14:05:00Z</time>
      </trkpt>
      <trkpt lat="42.46045" lon="1.84298">
        <ele>1883</ele>
        <time>2019-07-01T14:05:05Z</time>
      </trkpt>
      <trkpt lat="42.46037" lon="1.84298">
        <ele>1884</ele>
        <time>2019-07-01T14:05:12Z</time>
      </trkpt>
      <trkpt lat="42.4603" lon="1.84296">
        <ele>1884</ele>
        <time>2019-07-01T14:05:18Z</time>
      </trkpt>
      <trkpt lat="42.46024" lon="1.84296">
        <ele>1885</ele>
        <time>2019-07-01T14:05:25Z</time>
      </trkpt>
      <trkpt lat="42.46015" lon="1.84297">
        <ele>1885</ele>
        <time>2019-07-01T14:05:39Z</time>
      </trkpt>
      <trkpt lat="42.45993" lon="1.84306">
        <ele>1887</ele>
        <time>2019-07-01T14:06:03Z</time>
      </trkpt>
      <trkpt lat="42.45987" lon="1.84316">
        <ele>1887</ele>
        <time>2019-07-01T14:06:18Z</time>
      </trkpt>
      <trkpt lat="42.45981" lon="1.84329">
        <ele>1889</ele>
        <time>2019-07-01T14:08:19Z</time>
      </trkpt>
      <trkpt lat="42.45949" lon="1.8435">
        <ele>1893</ele>
        <time>2019-07-01T14:08:53Z</time>
      </trkpt>
      <trkpt lat="42.45934" lon="1.84362">
        <ele>1897</ele>
        <time>2019-07-01T14:09:19Z</time>
      </trkpt>
      <trkpt lat="42.45932" lon="1.8437">
        <ele>1897</ele>
        <time>2019-07-01T14:09:24Z</time>
      </trkpt>
      <trkpt lat="42.4592" lon="1.84392">
        <ele>1899</ele>
        <time>2019-07-01T14:09:43Z</time>
      </trkpt>
      <trkpt lat="42.45918" lon="1.84397">
        <ele>1899</ele>
        <time>2019-07-01T14:09:49Z</time>
      </trkpt>
      <trkpt lat="42.45918" lon="1.8442">
        <ele>1901</ele>
        <time>2019-07-01T14:10:06Z</time>
      </trkpt>
      <trkpt lat="42.45925" lon="1.84439">
        <ele>1902</ele>
        <time>2019-07-01T14:10:20Z</time>
      </trkpt>
      <trkpt lat="42.45927" lon="1.84452">
        <ele>1902</ele>
        <time>2019-07-01T14:10:28Z</time>
      </trkpt>
      <trkpt lat="42.45927" lon="1.84458">
        <ele>1902</ele>
        <time>2019-07-01T14:10:33Z</time>
      </trkpt>
      <trkpt lat="42.45933" lon="1.84473">
        <ele>1902</ele>
        <time>2019-07-01T14:10:43Z</time>
      </trkpt>
    </trkseg>
  </trk>
</gpx>